TAP283 FQMA-LPPT
Flight info
| Callsign | TAP283 |
|---|---|
| Flight time | 10h 28m |
| Altitude | 36000 |
| Route | UVDUS1A ATUSI UB529 GADBA UG652 VLS UM215 LUB UA607 DIR UB730 MNA UM999 ARIAM DCT BERUM DCT MGA DCT MAR DCT SVL DCT PIMUR DCT ONUBA DCT NAPES DCT OSLEP DCT MINTA DCT VATZI VATZI1A |
| Aircraft | A339/H-SDE2E3FGHIJ1RWXYZ/LB1 |
Departure
| Time | 2026-04-24 00:47 |
|---|---|
| Airport | Maputo Airport (FQMA) |
Arrival
| Time | 2026-04-24 11:16 |
|---|---|
| Airport | Lisbon Humberto Delgado Airport (LPPT) |
| Time | Latitude | Longitude | Altitude | Speed | Heading |
|---|---|---|---|---|---|
| 2026-04-24 00:17 | -25.92283 | 32.57574 | 140 ft | 0 kts | 176° |
| 2026-04-24 00:32 | -25.92281 | 32.57574 | 140 ft | 0 kts | 176° |
| 2026-04-24 00:33 | -25.92263 | 32.57573 | 140 ft | 3 kts | 176° |
| 2026-04-24 00:33 | -25.92241 | 32.57571 | 140 ft | 3 kts | 176° |
| 2026-04-24 00:33 | -25.92219 | 32.57569 | 140 ft | 3 kts | 195° |
| 2026-04-24 00:34 | -25.92197 | 32.57578 | 140 ft | 3 kts | 228° |
| 2026-04-24 00:34 | -25.92184 | 32.57598 | 140 ft | 3 kts | 258° |
| 2026-04-24 00:34 | -25.92182 | 32.57605 | 140 ft | 0 kts | 266° |
| 2026-04-24 00:37 | -25.92184 | 32.57578 | 140 ft | 6 kts | 266° |
| 2026-04-24 00:37 | -25.92187 | 32.57527 | 140 ft | 7 kts | 266° |
| 2026-04-24 00:37 | -25.92188 | 32.57470 | 139 ft | 7 kts | 275° |
| 2026-04-24 00:37 | -25.92155 | 32.57455 | 139 ft | 7 kts | 352° |
| 2026-04-24 00:38 | -25.92098 | 32.57456 | 139 ft | 9 kts | 15° |
| 2026-04-24 00:38 | -25.92043 | 32.57487 | 139 ft | 9 kts | 29° |
| 2026-04-24 00:38 | -25.91985 | 32.57522 | 140 ft | 12 kts | 29° |
| 2026-04-24 00:38 | -25.91932 | 32.57555 | 140 ft | 14 kts | 29° |
| 2026-04-24 00:39 | -25.91849 | 32.57607 | 140 ft | 14 kts | 29° |
| 2026-04-24 00:39 | -25.91766 | 32.57658 | 141 ft | 14 kts | 29° |
| 2026-04-24 00:39 | -25.91658 | 32.57723 | 142 ft | 13 kts | 28° |
| 2026-04-24 00:39 | -25.91605 | 32.57754 | 143 ft | 13 kts | 28° |
| 2026-04-24 00:40 | -25.91527 | 32.57801 | 144 ft | 13 kts | 29° |
| 2026-04-24 00:40 | -25.91452 | 32.57848 | 145 ft | 12 kts | 29° |
| 2026-04-24 00:40 | -25.91379 | 32.57893 | 146 ft | 12 kts | 29° |
| 2026-04-24 00:40 | -25.91307 | 32.57937 | 146 ft | 13 kts | 28° |
| 2026-04-24 00:41 | -25.91225 | 32.57987 | 147 ft | 13 kts | 28° |
| 2026-04-24 00:41 | -25.91143 | 32.58035 | 148 ft | 13 kts | 28° |
| 2026-04-24 00:41 | -25.91064 | 32.58083 | 149 ft | 13 kts | 28° |
| 2026-04-24 00:41 | -25.90987 | 32.58133 | 149 ft | 13 kts | 31° |
| 2026-04-24 00:42 | -25.90910 | 32.58181 | 150 ft | 13 kts | 29° |
| 2026-04-24 00:42 | -25.90830 | 32.58229 | 150 ft | 14 kts | 28° |
| 2026-04-24 00:42 | -25.90730 | 32.58290 | 151 ft | 19 kts | 28° |
| 2026-04-24 00:42 | -25.90612 | 32.58361 | 152 ft | 19 kts | 29° |
| 2026-04-24 00:43 | -25.90498 | 32.58431 | 154 ft | 18 kts | 29° |
| 2026-04-24 00:43 | -25.90389 | 32.58498 | 155 ft | 18 kts | 29° |
| 2026-04-24 00:43 | -25.90284 | 32.58563 | 156 ft | 17 kts | 29° |
| 2026-04-24 00:43 | -25.90182 | 32.58625 | 157 ft | 16 kts | 29° |
| 2026-04-24 00:44 | -25.90082 | 32.58686 | 158 ft | 16 kts | 28° |
| 2026-04-24 00:44 | -25.89985 | 32.58745 | 159 ft | 16 kts | 28° |
| 2026-04-24 00:44 | -25.89891 | 32.58803 | 160 ft | 15 kts | 29° |
| 2026-04-24 00:44 | -25.89798 | 32.58860 | 160 ft | 15 kts | 29° |
| 2026-04-24 00:45 | -25.89706 | 32.58916 | 161 ft | 15 kts | 29° |
| 2026-04-24 00:45 | -25.89614 | 32.58924 | 161 ft | 12 kts | 327° |
| 2026-04-24 00:45 | -25.89606 | 32.58855 | 160 ft | 9 kts | 270° |
| 2026-04-24 00:45 | -25.89600 | 32.58787 | 160 ft | 8 kts | 273° |
| 2026-04-24 00:46 | -25.89632 | 32.58749 | 159 ft | 7 kts | 217° |
| 2026-04-24 00:46 | -25.89657 | 32.58734 | 159 ft | 0 kts | 208° |
| 2026-04-24 00:46 | -25.89658 | 32.58733 | 159 ft | 1 kts | 208° |
| 2026-04-24 00:46 | -25.89771 | 32.58666 | 159 ft | 50 kts | 208° |
| 2026-04-24 00:47 | -25.90300 | 32.58342 | 155 ft | 121 kts | 208° |
| 2026-04-24 00:47 | -25.91203 | 32.57791 | 152 ft | 172 kts | 208° |
| 2026-04-24 00:47 | -25.92305 | 32.57134 | 635 ft | 181 kts | 209° |
| 2026-04-24 00:47 | -25.93278 | 32.56277 | 1301 ft | 184 kts | 232° |
| 2026-04-24 00:48 | -25.93650 | 32.54842 | 1840 ft | 206 kts | 268° |
| 2026-04-24 00:48 | -25.93170 | 32.53300 | 2275 ft | 225 kts | 305° |
| 2026-04-24 00:48 | -25.91931 | 32.52225 | 2811 ft | 231 kts | 341° |
| 2026-04-24 00:48 | -25.90375 | 32.52051 | 3414 ft | 225 kts | 15° |
| 2026-04-24 00:49 | -25.88907 | 32.52530 | 4005 ft | 218 kts | 23° |
| 2026-04-24 00:49 | -25.87388 | 32.52947 | 4083 ft | 239 kts | 14° |
| 2026-04-24 00:49 | -25.85645 | 32.53157 | 4446 ft | 256 kts | 6° |
| 2026-04-24 00:49 | -25.83820 | 32.53105 | 4732 ft | 273 kts | 358° |
| 2026-04-24 00:50 | -25.81897 | 32.52906 | 5130 ft | 282 kts | 359° |
| 2026-04-24 00:50 | -25.79936 | 32.52754 | 5640 ft | 283 kts | 360° |
| 2026-04-24 00:50 | -25.77962 | 32.52620 | 6336 ft | 281 kts | 360° |
| 2026-04-24 00:50 | -25.75997 | 32.52494 | 6853 ft | 284 kts | 360° |
| 2026-04-24 00:51 | -25.74038 | 32.52373 | 7374 ft | 286 kts | 360° |
| 2026-04-24 00:51 | -25.72040 | 32.52253 | 7919 ft | 288 kts | 359° |
| 2026-04-24 00:51 | -25.70040 | 32.52133 | 8437 ft | 291 kts | 359° |
| 2026-04-24 00:51 | -25.67999 | 32.52010 | 8977 ft | 293 kts | 359° |
| 2026-04-24 00:52 | -25.65956 | 32.51887 | 9530 ft | 295 kts | 359° |
| 2026-04-24 00:52 | -25.63901 | 32.51762 | 10100 ft | 297 kts | 359° |
| 2026-04-24 00:52 | -25.61810 | 32.51635 | 10508 ft | 304 kts | 359° |
| 2026-04-24 00:52 | -25.59649 | 32.51505 | 10651 ft | 320 kts | 359° |
| 2026-04-24 00:53 | -25.57393 | 32.51370 | 10790 ft | 335 kts | 359° |
| 2026-04-24 00:53 | -25.55032 | 32.51226 | 11083 ft | 344 kts | 359° |
| 2026-04-24 00:53 | -25.52611 | 32.51076 | 11637 ft | 343 kts | 358° |
| 2026-04-24 00:53 | -25.50252 | 32.50933 | 12199 ft | 343 kts | 358° |
| 2026-04-24 00:54 | -25.47881 | 32.50789 | 12776 ft | 342 kts | 357° |
| 2026-04-24 00:54 | -25.45478 | 32.50645 | 13269 ft | 344 kts | 357° |
| 2026-04-24 00:54 | -25.43091 | 32.50491 | 13755 ft | 346 kts | 355° |
| 2026-04-24 00:54 | -25.40706 | 32.50084 | 14200 ft | 348 kts | 348° |
| 2026-04-24 00:55 | -25.38317 | 32.49548 | 14608 ft | 351 kts | 348° |
| 2026-04-24 00:55 | -25.35917 | 32.49021 | 14985 ft | 354 kts | 348° |
| 2026-04-24 00:55 | -25.33478 | 32.48492 | 15389 ft | 357 kts | 347° |
| 2026-04-24 00:55 | -25.31064 | 32.47974 | 15777 ft | 359 kts | 347° |
| 2026-04-24 00:56 | -25.28598 | 32.47446 | 16187 ft | 361 kts | 347° |
| 2026-04-24 00:56 | -25.26121 | 32.46916 | 16563 ft | 364 kts | 347° |
| 2026-04-24 00:56 | -25.23628 | 32.46382 | 16946 ft | 367 kts | 346° |
| 2026-04-24 00:56 | -25.21113 | 32.45843 | 17321 ft | 370 kts | 346° |
| 2026-04-24 00:57 | -25.18586 | 32.45302 | 17688 ft | 372 kts | 346° |
| 2026-04-24 00:57 | -25.16018 | 32.44753 | 18043 ft | 375 kts | 346° |
| 2026-04-24 00:57 | -25.10863 | 32.43650 | 18743 ft | 380 kts | 345° |
| 2026-04-24 00:58 | -25.08280 | 32.43096 | 19165 ft | 380 kts | 346° |
| 2026-04-24 00:58 | -25.05673 | 32.42538 | 19518 ft | 381 kts | 346° |
| 2026-04-24 00:58 | -25.03062 | 32.41979 | 19878 ft | 383 kts | 346° |
| 2026-04-24 00:58 | -25.00445 | 32.41419 | 20256 ft | 384 kts | 346° |
| 2026-04-24 00:59 | -24.97793 | 32.40853 | 20639 ft | 385 kts | 346° |
| 2026-04-24 00:59 | -24.95163 | 32.40291 | 21011 ft | 387 kts | 346° |
| 2026-04-24 00:59 | -24.92546 | 32.39733 | 21379 ft | 388 kts | 346° |
| 2026-04-24 00:59 | -24.89865 | 32.39161 | 21753 ft | 390 kts | 346° |
| 2026-04-24 01:00 | -24.87197 | 32.38592 | 22132 ft | 391 kts | 346° |
| 2026-04-24 01:00 | -24.84528 | 32.38023 | 22508 ft | 393 kts | 346° |
| 2026-04-24 01:00 | -24.81859 | 32.37454 | 22885 ft | 394 kts | 346° |
| 2026-04-24 01:00 | -24.79135 | 32.36874 | 23267 ft | 396 kts | 346° |
| 2026-04-24 01:01 | -24.76425 | 32.36297 | 23643 ft | 398 kts | 346° |
| 2026-04-24 01:01 | -24.73708 | 32.35718 | 23979 ft | 399 kts | 346° |
| 2026-04-24 01:01 | -24.70975 | 32.35137 | 24320 ft | 400 kts | 346° |
| 2026-04-24 01:01 | -24.68250 | 32.34557 | 24655 ft | 401 kts | 345° |
| 2026-04-24 01:02 | -24.65506 | 32.33974 | 24981 ft | 402 kts | 345° |
| 2026-04-24 01:02 | -24.62758 | 32.33390 | 25308 ft | 404 kts | 345° |
| 2026-04-24 01:02 | -24.59967 | 32.32797 | 25634 ft | 405 kts | 345° |
| 2026-04-24 01:02 | -24.57198 | 32.32209 | 25957 ft | 407 kts | 345° |
| 2026-04-24 01:03 | -24.54434 | 32.31623 | 26278 ft | 408 kts | 345° |
| 2026-04-24 01:03 | -24.51659 | 32.31035 | 26586 ft | 409 kts | 345° |
| 2026-04-24 01:03 | -24.48840 | 32.30437 | 26891 ft | 411 kts | 345° |
| 2026-04-24 01:03 | -24.46023 | 32.29841 | 27204 ft | 412 kts | 345° |
| 2026-04-24 01:04 | -24.43199 | 32.29243 | 27509 ft | 414 kts | 345° |
| 2026-04-24 01:04 | -24.40388 | 32.28649 | 27819 ft | 415 kts | 344° |
| 2026-04-24 01:04 | -24.37558 | 32.28050 | 28118 ft | 416 kts | 344° |
| 2026-04-24 01:04 | -24.34707 | 32.27448 | 28412 ft | 418 kts | 344° |
| 2026-04-24 01:05 | -24.31858 | 32.26846 | 28711 ft | 420 kts | 344° |
| 2026-04-24 01:05 | -24.28960 | 32.26234 | 29018 ft | 421 kts | 344° |
| 2026-04-24 01:05 | -24.26090 | 32.25628 | 29313 ft | 423 kts | 344° |
| 2026-04-24 01:05 | -24.23202 | 32.25019 | 29572 ft | 425 kts | 344° |
| 2026-04-24 01:06 | -24.20296 | 32.24406 | 29855 ft | 426 kts | 344° |
| 2026-04-24 01:06 | -24.17378 | 32.23791 | 30132 ft | 428 kts | 344° |
| 2026-04-24 01:06 | -24.14448 | 32.23174 | 30408 ft | 429 kts | 344° |
| 2026-04-24 01:06 | -24.11520 | 32.22558 | 30664 ft | 431 kts | 343° |
| 2026-04-24 01:07 | -24.08579 | 32.21939 | 30920 ft | 432 kts | 343° |
| 2026-04-24 01:07 | -24.05643 | 32.21322 | 31183 ft | 433 kts | 343° |
| 2026-04-24 01:07 | -24.02671 | 32.20697 | 31467 ft | 434 kts | 343° |
| 2026-04-24 01:07 | -23.99685 | 32.20069 | 31729 ft | 435 kts | 343° |
| 2026-04-24 01:08 | -23.96719 | 32.19447 | 32001 ft | 436 kts | 343° |
| 2026-04-24 01:08 | -23.93711 | 32.18815 | 32269 ft | 437 kts | 343° |
| 2026-04-24 01:08 | -23.90760 | 32.18196 | 32528 ft | 437 kts | 343° |
| 2026-04-24 01:08 | -23.87768 | 32.17568 | 32778 ft | 438 kts | 343° |
| 2026-04-24 01:09 | -23.84751 | 32.16935 | 32994 ft | 439 kts | 343° |
| 2026-04-24 01:09 | -23.81760 | 32.16308 | 33204 ft | 439 kts | 343° |
| 2026-04-24 01:09 | -23.78780 | 32.15683 | 33379 ft | 440 kts | 343° |
| 2026-04-24 01:09 | -23.75735 | 32.15044 | 33543 ft | 440 kts | 343° |
| 2026-04-24 01:10 | -23.72776 | 32.14425 | 33694 ft | 441 kts | 343° |
| 2026-04-24 01:10 | -23.69740 | 32.13791 | 33875 ft | 440 kts | 343° |
| 2026-04-24 01:10 | -23.66736 | 32.13165 | 34086 ft | 438 kts | 343° |
| 2026-04-24 01:10 | -23.63739 | 32.12538 | 34267 ft | 437 kts | 343° |
| 2026-04-24 01:11 | -23.60779 | 32.11919 | 34388 ft | 438 kts | 343° |
| 2026-04-24 01:11 | -23.57787 | 32.11293 | 34498 ft | 438 kts | 343° |
| 2026-04-24 01:11 | -23.54794 | 32.10668 | 34602 ft | 439 kts | 343° |
| 2026-04-24 01:11 | -23.51797 | 32.10042 | 34704 ft | 439 kts | 343° |
| 2026-04-24 01:12 | -23.48758 | 32.09409 | 34813 ft | 440 kts | 343° |
| 2026-04-24 01:12 | -23.42766 | 32.08160 | 35010 ft | 440 kts | 343° |
| 2026-04-24 01:13 | -23.36747 | 32.06907 | 35198 ft | 442 kts | 342° |
| 2026-04-24 01:13 | -23.30714 | 32.05653 | 35385 ft | 443 kts | 342° |
| 2026-04-24 01:14 | -23.24652 | 32.04393 | 35575 ft | 444 kts | 342° |
| 2026-04-24 01:14 | -23.18590 | 32.03144 | 35757 ft | 445 kts | 342° |
| 2026-04-24 01:15 | -23.12493 | 32.01890 | 35927 ft | 446 kts | 342° |
| 2026-04-24 01:15 | -23.06383 | 32.00635 | 36108 ft | 447 kts | 342° |
| 2026-04-24 01:16 | -23.00271 | 31.99379 | 36211 ft | 448 kts | 342° |
| 2026-04-24 01:16 | -22.94159 | 31.98112 | 36207 ft | 448 kts | 341° |
| 2026-04-24 01:17 | -22.88024 | 31.96769 | 36209 ft | 447 kts | 341° |
| 2026-04-24 01:17 | -22.81950 | 31.95438 | 36198 ft | 448 kts | 341° |
| 2026-04-24 01:18 | -22.75848 | 31.94111 | 36209 ft | 448 kts | 341° |
| 2026-04-24 01:18 | -22.69710 | 31.92779 | 36209 ft | 448 kts | 341° |
| 2026-04-24 01:19 | -22.63615 | 31.91459 | 36200 ft | 448 kts | 341° |
| 2026-04-24 01:19 | -22.57523 | 31.90139 | 36196 ft | 448 kts | 341° |
| 2026-04-24 01:20 | -22.51422 | 31.88819 | 36197 ft | 448 kts | 341° |
| 2026-04-24 01:20 | -22.45307 | 31.87498 | 36192 ft | 448 kts | 341° |
| 2026-04-24 01:21 | -22.39164 | 31.86171 | 36187 ft | 448 kts | 341° |
| 2026-04-24 01:21 | -22.33056 | 31.84853 | 36186 ft | 449 kts | 341° |
| 2026-04-24 01:22 | -22.26969 | 31.83541 | 36184 ft | 449 kts | 341° |
| 2026-04-24 01:22 | -22.20825 | 31.82218 | 36186 ft | 450 kts | 341° |
| 2026-04-24 01:23 | -22.14666 | 31.80891 | 36181 ft | 450 kts | 342° |
| 2026-04-24 01:23 | -22.08523 | 31.79570 | 36182 ft | 451 kts | 342° |
| 2026-04-24 01:24 | -22.02374 | 31.78250 | 36180 ft | 451 kts | 342° |
| 2026-04-24 01:24 | -21.96251 | 31.76828 | 36184 ft | 448 kts | 338° |
| 2026-04-24 01:25 | -21.90476 | 31.74501 | 36180 ft | 440 kts | 329° |
| 2026-04-24 01:25 | -21.84923 | 31.71742 | 36176 ft | 441 kts | 329° |
| 2026-04-24 01:26 | -21.79323 | 31.69004 | 36178 ft | 442 kts | 329° |
| 2026-04-24 01:26 | -21.73701 | 31.66264 | 36179 ft | 443 kts | 329° |
| 2026-04-24 01:27 | -21.68095 | 31.63532 | 36180 ft | 443 kts | 329° |
| 2026-04-24 01:27 | -21.62482 | 31.60799 | 36175 ft | 444 kts | 329° |
| 2026-04-24 01:28 | -21.56858 | 31.58063 | 36176 ft | 444 kts | 329° |
| 2026-04-24 01:28 | -21.51232 | 31.55328 | 36177 ft | 445 kts | 330° |
| 2026-04-24 01:29 | -21.45593 | 31.52590 | 36173 ft | 446 kts | 330° |
| 2026-04-24 01:29 | -21.39952 | 31.49853 | 36168 ft | 446 kts | 330° |
| 2026-04-24 01:30 | -21.34275 | 31.47100 | 36170 ft | 447 kts | 330° |
| 2026-04-24 01:30 | -21.28629 | 31.44365 | 36171 ft | 447 kts | 330° |
| 2026-04-24 01:31 | -21.22949 | 31.41616 | 36172 ft | 448 kts | 330° |
| 2026-04-24 01:31 | -21.17286 | 31.38877 | 36172 ft | 448 kts | 330° |
| 2026-04-24 01:32 | -21.11578 | 31.36118 | 36172 ft | 448 kts | 330° |
| 2026-04-24 01:32 | -21.05892 | 31.33373 | 36173 ft | 449 kts | 330° |
| 2026-04-24 01:33 | -21.00231 | 31.30643 | 36174 ft | 449 kts | 330° |
| 2026-04-24 01:33 | -20.94523 | 31.27892 | 36173 ft | 450 kts | 330° |
| 2026-04-24 01:34 | -20.89775 | 31.25605 | 36178 ft | 450 kts | 330° |
| 2026-04-24 01:34 | -20.84051 | 31.22851 | 36177 ft | 451 kts | 330° |
| 2026-04-24 01:35 | -20.78311 | 31.20092 | 36179 ft | 451 kts | 330° |
| 2026-04-24 01:35 | -20.72593 | 31.17345 | 36179 ft | 452 kts | 330° |
| 2026-04-24 01:36 | -20.66868 | 31.14596 | 36183 ft | 453 kts | 330° |
| 2026-04-24 01:36 | -20.61126 | 31.11843 | 36185 ft | 453 kts | 330° |
| 2026-04-24 01:37 | -20.55369 | 31.09083 | 36184 ft | 454 kts | 330° |
| 2026-04-24 01:37 | -20.49623 | 31.06331 | 36182 ft | 454 kts | 330° |
| 2026-04-24 01:38 | -20.43835 | 31.03562 | 36184 ft | 454 kts | 330° |
| 2026-04-24 01:38 | -20.38092 | 31.00817 | 36185 ft | 455 kts | 330° |
| 2026-04-24 01:39 | -20.32275 | 30.98039 | 36181 ft | 455 kts | 330° |
| 2026-04-24 01:39 | -20.26528 | 30.95295 | 36185 ft | 456 kts | 330° |
| 2026-04-24 01:40 | -20.20732 | 30.92531 | 36182 ft | 456 kts | 330° |
| 2026-04-24 01:40 | -20.14945 | 30.89773 | 36179 ft | 456 kts | 330° |
| 2026-04-24 01:41 | -20.09137 | 30.87009 | 36178 ft | 457 kts | 330° |
| 2026-04-24 01:41 | -20.03318 | 30.84255 | 36176 ft | 458 kts | 331° |
| 2026-04-24 01:42 | -19.97449 | 30.81606 | 36172 ft | 459 kts | 332° |
| 2026-04-24 01:42 | -19.91576 | 30.78961 | 36171 ft | 460 kts | 331° |
| 2026-04-24 01:43 | -19.85681 | 30.76294 | 36171 ft | 460 kts | 331° |
| 2026-04-24 01:43 | -19.79808 | 30.73635 | 36169 ft | 461 kts | 331° |
| 2026-04-24 01:44 | -19.73921 | 30.70972 | 36167 ft | 462 kts | 331° |
| 2026-04-24 01:44 | -19.68004 | 30.68297 | 36159 ft | 462 kts | 331° |
| 2026-04-24 01:45 | -19.62076 | 30.65620 | 36156 ft | 462 kts | 331° |
| 2026-04-24 01:45 | -19.56162 | 30.62952 | 36155 ft | 463 kts | 331° |
| 2026-04-24 01:46 | -19.50234 | 30.60280 | 36166 ft | 463 kts | 331° |
| 2026-04-24 01:46 | -19.44293 | 30.57603 | 36173 ft | 464 kts | 331° |
| 2026-04-24 01:47 | -19.38354 | 30.54929 | 36161 ft | 464 kts | 331° |
| 2026-04-24 01:47 | -19.32407 | 30.52253 | 36163 ft | 465 kts | 331° |
| 2026-04-24 01:48 | -19.26440 | 30.49572 | 36158 ft | 465 kts | 331° |
| 2026-04-24 01:48 | -19.20511 | 30.46909 | 36153 ft | 466 kts | 331° |
| 2026-04-24 01:49 | -19.14549 | 30.44233 | 36153 ft | 466 kts | 331° |
| 2026-04-24 01:49 | -19.08574 | 30.41554 | 36149 ft | 466 kts | 331° |
| 2026-04-24 01:50 | -19.02616 | 30.38885 | 36141 ft | 466 kts | 331° |
| 2026-04-24 01:50 | -18.96633 | 30.36205 | 36140 ft | 466 kts | 331° |
| 2026-04-24 01:51 | -18.90663 | 30.33535 | 36132 ft | 466 kts | 331° |
| 2026-04-24 01:51 | -18.84704 | 30.30872 | 36129 ft | 466 kts | 331° |
| 2026-04-24 01:52 | -18.78714 | 30.28194 | 36128 ft | 467 kts | 331° |
| 2026-04-24 01:52 | -18.72727 | 30.25522 | 36120 ft | 467 kts | 331° |
| 2026-04-24 01:53 | -18.66749 | 30.22856 | 36112 ft | 467 kts | 332° |
| 2026-04-24 01:53 | -18.60762 | 30.20187 | 36115 ft | 468 kts | 331° |
| 2026-04-24 01:54 | -18.54797 | 30.17494 | 36110 ft | 468 kts | 331° |
| 2026-04-24 01:54 | -18.48831 | 30.14792 | 36111 ft | 468 kts | 331° |
| 2026-04-24 01:55 | -18.42837 | 30.12085 | 36101 ft | 469 kts | 331° |
| 2026-04-24 01:55 | -18.36853 | 30.09388 | 36103 ft | 469 kts | 331° |
| 2026-04-24 01:56 | -18.30812 | 30.06667 | 36099 ft | 470 kts | 331° |
| 2026-04-24 01:56 | -18.24807 | 30.03965 | 36098 ft | 471 kts | 331° |
| 2026-04-24 01:57 | -18.18845 | 30.01205 | 36101 ft | 470 kts | 329° |
| 2026-04-24 01:57 | -18.12931 | 29.98185 | 36097 ft | 470 kts | 329° |
| 2026-04-24 01:58 | -18.07074 | 29.95214 | 36097 ft | 471 kts | 329° |
| 2026-04-24 01:58 | -18.01173 | 29.92256 | 36096 ft | 471 kts | 329° |
| 2026-04-24 01:59 | -17.95212 | 29.89367 | 36093 ft | 474 kts | 333° |
| 2026-04-24 01:59 | -17.89051 | 29.86798 | 36083 ft | 474 kts | 333° |
| 2026-04-24 02:00 | -17.82909 | 29.84217 | 36083 ft | 475 kts | 333° |
| 2026-04-24 02:00 | -17.76811 | 29.81655 | 36089 ft | 476 kts | 333° |
| 2026-04-24 02:01 | -17.70632 | 29.79060 | 36084 ft | 476 kts | 333° |
| 2026-04-24 02:01 | -17.64513 | 29.76493 | 36083 ft | 476 kts | 333° |
| 2026-04-24 02:02 | -17.58340 | 29.73906 | 36080 ft | 477 kts | 333° |
| 2026-04-24 02:02 | -17.52216 | 29.71339 | 36084 ft | 477 kts | 333° |
| 2026-04-24 02:03 | -17.42962 | 29.67466 | 36084 ft | 478 kts | 333° |
| 2026-04-24 02:03 | -17.36800 | 29.64889 | 36082 ft | 478 kts | 333° |
| 2026-04-24 02:04 | -17.30593 | 29.62295 | 36085 ft | 478 kts | 333° |
| 2026-04-24 02:04 | -17.24454 | 29.59732 | 36085 ft | 478 kts | 333° |
| 2026-04-24 02:05 | -17.18273 | 29.57152 | 36084 ft | 478 kts | 333° |
| 2026-04-24 02:05 | -17.12098 | 29.54535 | 36083 ft | 477 kts | 332° |
| 2026-04-24 02:06 | -17.06031 | 29.51775 | 36082 ft | 477 kts | 331° |
| 2026-04-24 02:06 | -16.99940 | 29.49011 | 36081 ft | 478 kts | 332° |
| 2026-04-24 02:07 | -16.93850 | 29.46275 | 36081 ft | 478 kts | 332° |
| 2026-04-24 02:07 | -16.87726 | 29.43529 | 36081 ft | 479 kts | 332° |
| 2026-04-24 02:08 | -16.81595 | 29.40782 | 36086 ft | 479 kts | 332° |
| 2026-04-24 02:08 | -16.75466 | 29.38037 | 36076 ft | 479 kts | 332° |
| 2026-04-24 02:09 | -16.69359 | 29.35304 | 36076 ft | 480 kts | 332° |
| 2026-04-24 02:09 | -16.63232 | 29.32565 | 36072 ft | 480 kts | 332° |
| 2026-04-24 02:10 | -16.57100 | 29.29825 | 36070 ft | 480 kts | 332° |
| 2026-04-24 02:10 | -16.50939 | 29.27073 | 36066 ft | 480 kts | 332° |
| 2026-04-24 02:11 | -16.44808 | 29.24338 | 36059 ft | 481 kts | 332° |
| 2026-04-24 02:11 | -16.38662 | 29.21598 | 36053 ft | 481 kts | 332° |
| 2026-04-24 02:12 | -16.32535 | 29.18867 | 36048 ft | 481 kts | 332° |
| 2026-04-24 02:12 | -16.26355 | 29.16114 | 36041 ft | 481 kts | 332° |
| 2026-04-24 02:13 | -16.20227 | 29.13384 | 36032 ft | 481 kts | 332° |
| 2026-04-24 02:13 | -16.14045 | 29.10637 | 36047 ft | 482 kts | 332° |
| 2026-04-24 02:14 | -16.07872 | 29.07894 | 36045 ft | 482 kts | 333° |
| 2026-04-24 02:14 | -16.01736 | 29.05169 | 36048 ft | 482 kts | 333° |
| 2026-04-24 02:15 | -15.95652 | 29.02221 | 36027 ft | 479 kts | 326° |
| 2026-04-24 02:15 | -15.90219 | 28.98292 | 36022 ft | 473 kts | 315° |
| 2026-04-24 02:16 | -15.85438 | 28.93634 | 36025 ft | 471 kts | 312° |
| 2026-04-24 02:16 | -15.80690 | 28.88954 | 36032 ft | 472 kts | 313° |
| 2026-04-24 02:17 | -15.75934 | 28.84289 | 36054 ft | 472 kts | 313° |
| 2026-04-24 02:17 | -15.71149 | 28.79596 | 36064 ft | 472 kts | 313° |
| 2026-04-24 02:18 | -15.66399 | 28.74940 | 36068 ft | 472 kts | 313° |
| 2026-04-24 02:18 | -15.61612 | 28.70251 | 36068 ft | 473 kts | 313° |
| 2026-04-24 02:19 | -15.56804 | 28.65543 | 36066 ft | 473 kts | 313° |
| 2026-04-24 02:19 | -15.52032 | 28.60873 | 36048 ft | 474 kts | 313° |
| 2026-04-24 02:20 | -15.47237 | 28.56186 | 36049 ft | 474 kts | 313° |
| 2026-04-24 02:20 | -15.42469 | 28.51527 | 36051 ft | 474 kts | 313° |
| 2026-04-24 02:21 | -15.37647 | 28.46820 | 36067 ft | 474 kts | 313° |
| 2026-04-24 02:21 | -15.32321 | 28.42791 | 36069 ft | 482 kts | 328° |
| 2026-04-24 02:22 | -15.25998 | 28.40338 | 36058 ft | 490 kts | 344° |
| 2026-04-24 02:22 | -15.19376 | 28.38729 | 36057 ft | 491 kts | 343° |
| 2026-04-24 02:23 | -15.12702 | 28.37056 | 36056 ft | 491 kts | 343° |
| 2026-04-24 02:23 | -15.06088 | 28.35395 | 36054 ft | 492 kts | 343° |
| 2026-04-24 02:24 | -14.99452 | 28.33730 | 36059 ft | 492 kts | 343° |
| 2026-04-24 02:24 | -14.92777 | 28.32058 | 36052 ft | 492 kts | 343° |
| 2026-04-24 02:25 | -14.86103 | 28.30388 | 36048 ft | 493 kts | 343° |
| 2026-04-24 02:25 | -14.79481 | 28.28732 | 36048 ft | 493 kts | 343° |
| 2026-04-24 02:26 | -14.72794 | 28.27060 | 36047 ft | 493 kts | 343° |
| 2026-04-24 02:26 | -14.66157 | 28.25401 | 36044 ft | 493 kts | 343° |
| 2026-04-24 02:27 | -14.59456 | 28.23728 | 36043 ft | 493 kts | 343° |
| 2026-04-24 02:27 | -14.52814 | 28.22070 | 36042 ft | 493 kts | 343° |
| 2026-04-24 02:28 | -14.46130 | 28.20403 | 36046 ft | 493 kts | 343° |
| 2026-04-24 02:28 | -14.39487 | 28.18748 | 36046 ft | 493 kts | 343° |
| 2026-04-24 02:29 | -14.32809 | 28.17084 | 36039 ft | 493 kts | 343° |
| 2026-04-24 02:29 | -14.27271 | 28.15705 | 36038 ft | 493 kts | 343° |
| 2026-04-24 02:30 | -14.20602 | 28.14045 | 36043 ft | 493 kts | 343° |
| 2026-04-24 02:30 | -14.13933 | 28.12386 | 36039 ft | 493 kts | 343° |
| 2026-04-24 02:31 | -14.07257 | 28.10727 | 36043 ft | 493 kts | 343° |
| 2026-04-24 02:31 | -14.00569 | 28.09066 | 36037 ft | 494 kts | 344° |
| 2026-04-24 02:32 | -13.93901 | 28.07411 | 36035 ft | 494 kts | 344° |
| 2026-04-24 02:32 | -13.87230 | 28.05755 | 36035 ft | 494 kts | 344° |
| 2026-04-24 02:33 | -13.80574 | 28.04105 | 36034 ft | 494 kts | 344° |
| 2026-04-24 02:33 | -13.73894 | 28.02450 | 36038 ft | 494 kts | 344° |
| 2026-04-24 02:34 | -13.67182 | 28.00788 | 36035 ft | 494 kts | 344° |
| 2026-04-24 02:34 | -13.60504 | 27.99135 | 36037 ft | 494 kts | 344° |
| 2026-04-24 02:35 | -13.53839 | 27.97486 | 36035 ft | 494 kts | 344° |
| 2026-04-24 02:35 | -13.47136 | 27.95829 | 36035 ft | 494 kts | 344° |
| 2026-04-24 02:36 | -13.40493 | 27.94187 | 36036 ft | 494 kts | 344° |
| 2026-04-24 02:36 | -13.33792 | 27.92533 | 36036 ft | 493 kts | 344° |
| 2026-04-24 02:37 | -13.27115 | 27.90885 | 36035 ft | 493 kts | 344° |
| 2026-04-24 02:37 | -13.20441 | 27.89239 | 36036 ft | 493 kts | 344° |
| 2026-04-24 02:38 | -13.13798 | 27.87601 | 36030 ft | 493 kts | 344° |
| 2026-04-24 02:38 | -13.07083 | 27.85947 | 36032 ft | 493 kts | 344° |
| 2026-04-24 02:39 | -13.00445 | 27.84312 | 36032 ft | 493 kts | 344° |
| 2026-04-24 02:39 | -12.93775 | 27.82671 | 36034 ft | 493 kts | 344° |
| 2026-04-24 02:40 | -12.87092 | 27.81027 | 36032 ft | 493 kts | 345° |
| 2026-04-24 02:40 | -12.80442 | 27.79392 | 36030 ft | 493 kts | 345° |
| 2026-04-24 02:41 | -12.73772 | 27.77753 | 36031 ft | 493 kts | 345° |
| 2026-04-24 02:41 | -12.67133 | 27.76123 | 36026 ft | 493 kts | 345° |
| 2026-04-24 02:42 | -12.60447 | 27.74482 | 36026 ft | 493 kts | 345° |
| 2026-04-24 02:42 | -12.53757 | 27.72841 | 36027 ft | 493 kts | 345° |
| 2026-04-24 02:43 | -12.47073 | 27.71203 | 36027 ft | 494 kts | 345° |
| 2026-04-24 02:43 | -12.40419 | 27.69572 | 36023 ft | 494 kts | 345° |
| 2026-04-24 02:44 | -12.33733 | 27.67935 | 36023 ft | 494 kts | 345° |
| 2026-04-24 02:44 | -12.27073 | 27.66304 | 36024 ft | 494 kts | 345° |
| 2026-04-24 02:45 | -12.20377 | 27.64666 | 36023 ft | 495 kts | 345° |
| 2026-04-24 02:45 | -12.13686 | 27.63030 | 36024 ft | 495 kts | 345° |
| 2026-04-24 02:46 | -12.06986 | 27.61393 | 36020 ft | 495 kts | 345° |
| 2026-04-24 02:46 | -12.00300 | 27.59760 | 36020 ft | 495 kts | 345° |
| 2026-04-24 02:47 | -11.93564 | 27.58184 | 36020 ft | 496 kts | 346° |
| 2026-04-24 02:47 | -11.86850 | 27.56663 | 36016 ft | 496 kts | 346° |
| 2026-04-24 02:48 | -11.80112 | 27.55124 | 36018 ft | 496 kts | 346° |
| 2026-04-24 02:48 | -11.73409 | 27.53587 | 36021 ft | 496 kts | 346° |
| 2026-04-24 02:49 | -11.66652 | 27.52038 | 36015 ft | 496 kts | 346° |
| 2026-04-24 02:49 | -11.60043 | 27.50086 | 36015 ft | 495 kts | 337° |
| 2026-04-24 02:50 | -11.53885 | 27.46937 | 36009 ft | 493 kts | 328° |
| 2026-04-24 02:50 | -11.47952 | 27.43479 | 36011 ft | 494 kts | 329° |
| 2026-04-24 02:51 | -11.41977 | 27.40034 | 36008 ft | 494 kts | 329° |
| 2026-04-24 02:51 | -11.35965 | 27.36572 | 36010 ft | 494 kts | 329° |
| 2026-04-24 02:52 | -11.29997 | 27.33134 | 36005 ft | 494 kts | 329° |
| 2026-04-24 02:52 | -11.23990 | 27.29676 | 36003 ft | 494 kts | 329° |
| 2026-04-24 02:53 | -11.18031 | 27.26247 | 35999 ft | 495 kts | 329° |
| 2026-04-24 02:53 | -11.12045 | 27.22803 | 36001 ft | 494 kts | 329° |
| 2026-04-24 02:54 | -11.06061 | 27.19363 | 35995 ft | 495 kts | 329° |
| 2026-04-24 02:54 | -11.00064 | 27.15917 | 35992 ft | 495 kts | 329° |
| 2026-04-24 02:55 | -10.94086 | 27.12482 | 35989 ft | 495 kts | 329° |
| 2026-04-24 02:55 | -10.88093 | 27.09003 | 35986 ft | 494 kts | 329° |
| 2026-04-24 02:56 | -10.82119 | 27.05524 | 35982 ft | 495 kts | 329° |
| 2026-04-24 02:56 | -10.76174 | 27.02069 | 35982 ft | 495 kts | 329° |
| 2026-04-24 02:57 | -10.70197 | 26.98600 | 35977 ft | 495 kts | 329° |
| 2026-04-24 02:57 | -10.64202 | 26.95121 | 35975 ft | 495 kts | 329° |
| 2026-04-24 02:58 | -10.58242 | 26.91664 | 35966 ft | 495 kts | 329° |
| 2026-04-24 02:58 | -10.52246 | 26.88188 | 35965 ft | 496 kts | 329° |
| 2026-04-24 02:59 | -10.46236 | 26.84706 | 35961 ft | 496 kts | 329° |
| 2026-04-24 02:59 | -10.40279 | 26.81256 | 35959 ft | 496 kts | 329° |
| 2026-04-24 03:00 | -10.34254 | 26.77768 | 35957 ft | 496 kts | 329° |
| 2026-04-24 03:00 | -10.28277 | 26.74309 | 35955 ft | 497 kts | 329° |
| 2026-04-24 03:01 | -10.22265 | 26.70831 | 35954 ft | 497 kts | 329° |
| 2026-04-24 03:01 | -10.16251 | 26.67355 | 35952 ft | 497 kts | 329° |
| 2026-04-24 03:02 | -10.10257 | 26.63890 | 35953 ft | 497 kts | 330° |
| 2026-04-24 03:02 | -10.04241 | 26.60415 | 35955 ft | 497 kts | 330° |
| 2026-04-24 03:03 | -9.98261 | 26.56962 | 35954 ft | 497 kts | 330° |
| 2026-04-24 03:03 | -9.92261 | 26.53498 | 35957 ft | 497 kts | 330° |
| 2026-04-24 03:04 | -9.86219 | 26.50012 | 35956 ft | 497 kts | 330° |
| 2026-04-24 03:04 | -9.80213 | 26.46548 | 35955 ft | 497 kts | 330° |
| 2026-04-24 03:05 | -9.74228 | 26.43098 | 35956 ft | 498 kts | 330° |
| 2026-04-24 03:05 | -9.68185 | 26.39616 | 35949 ft | 498 kts | 330° |
| 2026-04-24 03:06 | -9.62156 | 26.36143 | 35943 ft | 498 kts | 330° |
| 2026-04-24 03:06 | -9.56135 | 26.32677 | 35935 ft | 498 kts | 330° |
| 2026-04-24 03:07 | -9.50089 | 26.29197 | 35924 ft | 499 kts | 330° |
| 2026-04-24 03:07 | -9.44095 | 26.25748 | 35918 ft | 499 kts | 330° |
| 2026-04-24 03:08 | -9.35015 | 26.20528 | 35906 ft | 499 kts | 330° |
| 2026-04-24 03:09 | -9.29001 | 26.17072 | 35897 ft | 498 kts | 330° |
| 2026-04-24 03:09 | -9.22981 | 26.13614 | 35885 ft | 498 kts | 330° |
| 2026-04-24 03:10 | -9.16969 | 26.10162 | 35879 ft | 498 kts | 330° |
| 2026-04-24 03:10 | -9.10918 | 26.06689 | 35873 ft | 498 kts | 330° |
| 2026-04-24 03:11 | -9.04922 | 26.03248 | 35866 ft | 498 kts | 330° |
| 2026-04-24 03:11 | -8.98879 | 25.99781 | 35868 ft | 498 kts | 330° |
| 2026-04-24 03:12 | -8.92858 | 25.96329 | 35867 ft | 498 kts | 330° |
| 2026-04-24 03:12 | -8.86850 | 25.92885 | 35864 ft | 498 kts | 330° |
| 2026-04-24 03:13 | -8.80811 | 25.89426 | 35868 ft | 498 kts | 330° |
| 2026-04-24 03:13 | -8.74762 | 25.85961 | 35869 ft | 498 kts | 330° |
| 2026-04-24 03:14 | -8.68754 | 25.82522 | 35873 ft | 498 kts | 330° |
| 2026-04-24 03:14 | -8.62739 | 25.79079 | 35874 ft | 498 kts | 330° |
| 2026-04-24 03:15 | -8.56712 | 25.75631 | 35878 ft | 498 kts | 330° |
| 2026-04-24 03:15 | -8.50695 | 25.72190 | 35875 ft | 498 kts | 330° |
| 2026-04-24 03:16 | -8.44649 | 25.68733 | 35878 ft | 498 kts | 330° |
| 2026-04-24 03:16 | -8.38636 | 25.65297 | 35880 ft | 498 kts | 330° |
| 2026-04-24 03:17 | -8.32602 | 25.61858 | 35882 ft | 498 kts | 330° |
| 2026-04-24 03:17 | -8.26558 | 25.58422 | 35882 ft | 498 kts | 330° |
| 2026-04-24 03:18 | -8.20543 | 25.55002 | 35879 ft | 498 kts | 330° |
| 2026-04-24 03:18 | -8.14492 | 25.51562 | 35881 ft | 498 kts | 330° |
| 2026-04-24 03:19 | -8.08475 | 25.48141 | 35880 ft | 498 kts | 330° |
| 2026-04-24 03:19 | -8.02413 | 25.44697 | 35879 ft | 498 kts | 330° |
| 2026-04-24 03:20 | -7.96357 | 25.41257 | 35882 ft | 499 kts | 330° |
| 2026-04-24 03:20 | -7.90327 | 25.37834 | 35881 ft | 499 kts | 330° |
| 2026-04-24 03:21 | -7.84303 | 25.34415 | 35882 ft | 499 kts | 330° |
| 2026-04-24 03:21 | -7.78262 | 25.30987 | 35881 ft | 499 kts | 330° |
| 2026-04-24 03:22 | -7.72203 | 25.27550 | 35881 ft | 499 kts | 331° |
| 2026-04-24 03:22 | -7.66147 | 25.24117 | 35882 ft | 500 kts | 331° |
| 2026-04-24 03:23 | -7.60061 | 25.20667 | 35883 ft | 500 kts | 331° |
| 2026-04-24 03:23 | -7.53997 | 25.17231 | 35883 ft | 500 kts | 331° |
| 2026-04-24 03:24 | -7.47951 | 25.13806 | 35883 ft | 500 kts | 331° |
| 2026-04-24 03:24 | -7.41894 | 25.10376 | 35888 ft | 500 kts | 331° |
| 2026-04-24 03:25 | -7.35820 | 25.06938 | 35886 ft | 500 kts | 331° |
| 2026-04-24 03:25 | -7.29770 | 25.03514 | 35884 ft | 501 kts | 331° |
| 2026-04-24 03:26 | -7.24708 | 25.00650 | 35883 ft | 501 kts | 331° |
| 2026-04-24 03:26 | -7.18640 | 24.97218 | 35885 ft | 501 kts | 331° |
| 2026-04-24 03:27 | -7.12579 | 24.93791 | 35883 ft | 501 kts | 331° |
| 2026-04-24 03:27 | -7.06483 | 24.90345 | 35880 ft | 501 kts | 331° |
| 2026-04-24 03:28 | -7.00415 | 24.86917 | 35880 ft | 501 kts | 331° |
| 2026-04-24 03:28 | -6.94360 | 24.83496 | 35882 ft | 500 kts | 331° |
| 2026-04-24 03:29 | -6.88272 | 24.80058 | 35873 ft | 500 kts | 331° |
| 2026-04-24 03:29 | -6.82211 | 24.76636 | 35875 ft | 500 kts | 331° |
| 2026-04-24 03:30 | -6.76175 | 24.73229 | 35868 ft | 500 kts | 331° |
| 2026-04-24 03:30 | -6.70119 | 24.69812 | 35872 ft | 500 kts | 331° |
| 2026-04-24 03:31 | -6.64062 | 24.66395 | 35868 ft | 500 kts | 331° |
| 2026-04-24 03:31 | -6.57977 | 24.62964 | 35868 ft | 499 kts | 331° |
| 2026-04-24 03:32 | -6.51917 | 24.59548 | 35870 ft | 499 kts | 331° |
| 2026-04-24 03:32 | -6.45850 | 24.56129 | 35870 ft | 499 kts | 331° |
| 2026-04-24 03:33 | -6.39813 | 24.52728 | 35871 ft | 499 kts | 331° |
| 2026-04-24 03:33 | -6.33760 | 24.49318 | 35874 ft | 499 kts | 331° |
| 2026-04-24 03:34 | -6.27694 | 24.45902 | 35875 ft | 499 kts | 331° |
| 2026-04-24 03:34 | -6.21637 | 24.42492 | 35881 ft | 499 kts | 331° |
| 2026-04-24 03:35 | -6.15598 | 24.39094 | 35876 ft | 499 kts | 331° |
| 2026-04-24 03:35 | -6.09569 | 24.35701 | 35878 ft | 498 kts | 331° |
| 2026-04-24 03:36 | -6.03519 | 24.32293 | 35880 ft | 498 kts | 331° |
| 2026-04-24 03:36 | -5.97499 | 24.28898 | 35884 ft | 498 kts | 331° |
| 2026-04-24 03:37 | -5.91443 | 24.25484 | 35880 ft | 498 kts | 331° |
| 2026-04-24 03:37 | -5.85425 | 24.22093 | 35875 ft | 497 kts | 331° |
| 2026-04-24 03:38 | -5.79394 | 24.18696 | 35877 ft | 497 kts | 331° |
| 2026-04-24 03:38 | -5.73383 | 24.15311 | 35876 ft | 497 kts | 331° |
| 2026-04-24 03:39 | -5.67327 | 24.11901 | 35873 ft | 497 kts | 331° |
| 2026-04-24 03:39 | -5.61301 | 24.08510 | 35876 ft | 497 kts | 331° |
| 2026-04-24 03:40 | -5.55303 | 24.05134 | 35873 ft | 496 kts | 331° |
| 2026-04-24 03:40 | -5.49262 | 24.01735 | 35877 ft | 496 kts | 331° |
| 2026-04-24 03:41 | -5.43261 | 23.98359 | 35877 ft | 496 kts | 331° |
| 2026-04-24 03:41 | -5.37207 | 23.94955 | 35875 ft | 496 kts | 331° |
| 2026-04-24 03:42 | -5.31189 | 23.91611 | 35870 ft | 496 kts | 332° |
| 2026-04-24 03:42 | -5.25132 | 23.88277 | 35871 ft | 496 kts | 332° |
| 2026-04-24 03:43 | -5.19089 | 23.84942 | 35877 ft | 496 kts | 332° |
| 2026-04-24 03:43 | -5.13038 | 23.81602 | 35875 ft | 496 kts | 332° |
| 2026-04-24 03:44 | -5.07019 | 23.78278 | 35874 ft | 495 kts | 332° |
| 2026-04-24 03:44 | -5.00994 | 23.74952 | 35875 ft | 495 kts | 332° |
| 2026-04-24 03:45 | -4.94969 | 23.71626 | 35870 ft | 495 kts | 332° |
| 2026-04-24 03:45 | -4.88933 | 23.68296 | 35874 ft | 495 kts | 332° |
| 2026-04-24 03:46 | -4.82926 | 23.64938 | 35876 ft | 494 kts | 331° |
| 2026-04-24 03:46 | -4.76931 | 23.61516 | 35880 ft | 494 kts | 331° |
| 2026-04-24 03:47 | -4.70960 | 23.58118 | 35879 ft | 494 kts | 331° |
| 2026-04-24 03:47 | -4.64970 | 23.54719 | 35881 ft | 494 kts | 331° |
| 2026-04-24 03:48 | -4.59032 | 23.51351 | 35881 ft | 494 kts | 331° |
| 2026-04-24 03:48 | -4.53062 | 23.47965 | 35881 ft | 494 kts | 331° |
| 2026-04-24 03:49 | -4.47066 | 23.44566 | 35880 ft | 493 kts | 331° |
| 2026-04-24 03:49 | -4.41060 | 23.41221 | 35878 ft | 493 kts | 332° |
| 2026-04-24 03:50 | -4.35055 | 23.37929 | 35878 ft | 493 kts | 332° |
| 2026-04-24 03:50 | -4.29054 | 23.34628 | 35879 ft | 493 kts | 332° |
| 2026-04-24 03:51 | -4.23043 | 23.31315 | 35880 ft | 493 kts | 332° |
| 2026-04-24 03:51 | -4.17043 | 23.28009 | 35877 ft | 493 kts | 332° |
| 2026-04-24 03:52 | -4.11053 | 23.24708 | 35884 ft | 492 kts | 332° |
| 2026-04-24 03:52 | -4.05051 | 23.21402 | 35885 ft | 492 kts | 332° |
| 2026-04-24 03:53 | -3.99079 | 23.18069 | 35882 ft | 491 kts | 331° |
| 2026-04-24 03:53 | -3.93146 | 23.14713 | 35883 ft | 491 kts | 331° |
| 2026-04-24 03:54 | -3.87213 | 23.11367 | 35883 ft | 490 kts | 331° |
| 2026-04-24 03:54 | -3.81253 | 23.08012 | 35890 ft | 490 kts | 331° |
| 2026-04-24 03:55 | -3.75338 | 23.04684 | 35887 ft | 489 kts | 331° |
| 2026-04-24 03:55 | -3.69384 | 23.01333 | 35886 ft | 489 kts | 331° |
| 2026-04-24 03:56 | -3.63474 | 22.98008 | 35890 ft | 488 kts | 331° |
| 2026-04-24 03:56 | -3.57582 | 22.94694 | 35891 ft | 488 kts | 330° |
| 2026-04-24 03:57 | -3.51653 | 22.91360 | 35884 ft | 487 kts | 330° |
| 2026-04-24 03:57 | -3.45779 | 22.88056 | 35889 ft | 487 kts | 330° |
| 2026-04-24 03:58 | -3.39852 | 22.84724 | 35890 ft | 486 kts | 330° |
| 2026-04-24 03:58 | -3.33977 | 22.81426 | 35894 ft | 486 kts | 330° |
| 2026-04-24 03:59 | -3.28038 | 22.78123 | 35895 ft | 485 kts | 330° |
| 2026-04-24 03:59 | -3.22177 | 22.74864 | 35894 ft | 485 kts | 330° |
| 2026-04-24 04:00 | -3.16290 | 22.71587 | 35896 ft | 485 kts | 330° |
| 2026-04-24 04:00 | -3.10375 | 22.68295 | 35900 ft | 484 kts | 330° |
| 2026-04-24 04:01 | -3.04517 | 22.65034 | 35901 ft | 484 kts | 330° |
| 2026-04-24 04:01 | -2.98649 | 22.61769 | 35897 ft | 483 kts | 330° |
| 2026-04-24 04:02 | -2.92792 | 22.58510 | 35895 ft | 482 kts | 330° |
| 2026-04-24 04:02 | -2.86896 | 22.55231 | 35893 ft | 482 kts | 330° |
| 2026-04-24 04:03 | -2.81056 | 22.51982 | 35895 ft | 482 kts | 330° |
| 2026-04-24 04:03 | -2.75205 | 22.48728 | 35892 ft | 482 kts | 330° |
| 2026-04-24 04:04 | -2.69362 | 22.45478 | 35890 ft | 481 kts | 330° |
| 2026-04-24 04:04 | -2.63491 | 22.42213 | 35890 ft | 481 kts | 330° |
| 2026-04-24 04:05 | -2.57673 | 22.38979 | 35891 ft | 481 kts | 330° |
| 2026-04-24 04:05 | -2.51822 | 22.35725 | 35887 ft | 481 kts | 330° |
| 2026-04-24 04:06 | -2.45982 | 22.32479 | 35888 ft | 481 kts | 330° |
| 2026-04-24 04:06 | -2.40098 | 22.29209 | 35885 ft | 481 kts | 330° |
| 2026-04-24 04:07 | -2.34271 | 22.25970 | 35885 ft | 481 kts | 330° |
| 2026-04-24 04:07 | -2.28437 | 22.22728 | 35878 ft | 481 kts | 330° |
| 2026-04-24 04:08 | -2.22606 | 22.19488 | 35886 ft | 480 kts | 330° |
| 2026-04-24 04:08 | -2.16749 | 22.16233 | 35887 ft | 480 kts | 330° |
| 2026-04-24 04:09 | -2.10933 | 22.13002 | 35887 ft | 479 kts | 330° |
| 2026-04-24 04:09 | -2.05102 | 22.09763 | 35887 ft | 479 kts | 330° |
| 2026-04-24 04:10 | -1.99283 | 22.06531 | 35887 ft | 479 kts | 330° |
| 2026-04-24 04:10 | -1.93451 | 22.03292 | 35882 ft | 478 kts | 330° |
| 2026-04-24 04:11 | -1.84758 | 21.98464 | 35885 ft | 478 kts | 330° |
| 2026-04-24 04:11 | -1.78916 | 21.95220 | 35883 ft | 478 kts | 330° |
| 2026-04-24 04:12 | -1.73124 | 21.92003 | 35880 ft | 478 kts | 331° |
| 2026-04-24 04:12 | -1.67303 | 21.88771 | 35881 ft | 479 kts | 331° |
| 2026-04-24 04:13 | -1.61502 | 21.85550 | 35880 ft | 479 kts | 331° |
| 2026-04-24 04:13 | -1.55663 | 21.82308 | 35883 ft | 479 kts | 331° |
| 2026-04-24 04:14 | -1.49877 | 21.79097 | 35884 ft | 479 kts | 331° |
| 2026-04-24 04:14 | -1.44031 | 21.75851 | 35883 ft | 479 kts | 331° |
| 2026-04-24 04:15 | -1.38217 | 21.72624 | 35883 ft | 479 kts | 331° |
| 2026-04-24 04:15 | -1.32389 | 21.69389 | 35883 ft | 479 kts | 330° |
| 2026-04-24 04:16 | -1.26575 | 21.66163 | 35880 ft | 479 kts | 330° |
| 2026-04-24 04:16 | -1.20757 | 21.62935 | 35881 ft | 479 kts | 330° |
| 2026-04-24 04:17 | -1.14924 | 21.59698 | 35879 ft | 480 kts | 330° |
| 2026-04-24 04:17 | -1.09096 | 21.56464 | 35878 ft | 481 kts | 330° |
| 2026-04-24 04:18 | -1.03253 | 21.53222 | 35877 ft | 481 kts | 330° |
| 2026-04-24 04:18 | -0.97368 | 21.49958 | 35881 ft | 482 kts | 330° |
| 2026-04-24 04:19 | -0.91498 | 21.46701 | 35883 ft | 483 kts | 330° |
| 2026-04-24 04:19 | -0.85641 | 21.43452 | 35884 ft | 483 kts | 330° |
| 2026-04-24 04:20 | -0.79754 | 21.40186 | 35888 ft | 483 kts | 330° |
| 2026-04-24 04:20 | -0.73896 | 21.36936 | 35893 ft | 484 kts | 330° |
| 2026-04-24 04:21 | -0.68005 | 21.33668 | 35896 ft | 483 kts | 330° |
| 2026-04-24 04:21 | -0.62155 | 21.30423 | 35892 ft | 483 kts | 331° |
| 2026-04-24 04:22 | -0.56249 | 21.27147 | 35891 ft | 483 kts | 331° |
| 2026-04-24 04:22 | -0.50378 | 21.23890 | 35892 ft | 483 kts | 331° |
| 2026-04-24 04:23 | -0.44497 | 21.20628 | 35891 ft | 483 kts | 331° |
| 2026-04-24 04:23 | -0.38655 | 21.17387 | 35893 ft | 482 kts | 331° |
| 2026-04-24 04:24 | -0.32790 | 21.14134 | 35892 ft | 482 kts | 331° |
| 2026-04-24 04:24 | -0.26922 | 21.10880 | 35894 ft | 482 kts | 331° |
| 2026-04-24 04:25 | -0.22051 | 21.08179 | 35890 ft | 482 kts | 331° |
| 2026-04-24 04:25 | -0.16196 | 21.04931 | 35891 ft | 482 kts | 331° |
| 2026-04-24 04:26 | -0.10337 | 21.01677 | 35892 ft | 481 kts | 331° |
| 2026-04-24 04:26 | -0.04491 | 20.98431 | 35891 ft | 481 kts | 331° |
| 2026-04-24 04:27 | 0.01397 | 20.95165 | 35898 ft | 482 kts | 330° |
| 2026-04-24 04:27 | 0.07242 | 20.91923 | 35875 ft | 483 kts | 330° |
| 2026-04-24 04:28 | 0.13147 | 20.88643 | 35869 ft | 484 kts | 330° |
| 2026-04-24 04:28 | 0.19022 | 20.85381 | 35874 ft | 485 kts | 330° |
| 2026-04-24 04:29 | 0.24920 | 20.82107 | 35895 ft | 485 kts | 330° |
| 2026-04-24 04:29 | 0.30804 | 20.78841 | 35896 ft | 486 kts | 330° |
| 2026-04-24 04:30 | 0.36725 | 20.75554 | 35903 ft | 486 kts | 330° |
| 2026-04-24 04:30 | 0.42619 | 20.72282 | 35898 ft | 487 kts | 330° |
| 2026-04-24 04:31 | 0.48558 | 20.68985 | 35878 ft | 487 kts | 330° |
| 2026-04-24 04:31 | 0.54496 | 20.65688 | 35894 ft | 487 kts | 330° |
| 2026-04-24 04:32 | 0.60402 | 20.62410 | 35896 ft | 487 kts | 330° |
| 2026-04-24 04:32 | 0.66310 | 20.59130 | 35893 ft | 487 kts | 330° |
| 2026-04-24 04:33 | 0.72221 | 20.55850 | 35897 ft | 487 kts | 330° |
| 2026-04-24 04:33 | 0.78158 | 20.52555 | 35896 ft | 487 kts | 330° |
| 2026-04-24 04:34 | 0.84068 | 20.49275 | 35882 ft | 487 kts | 330° |
| 2026-04-24 04:34 | 0.90011 | 20.45976 | 35885 ft | 487 kts | 331° |
| 2026-04-24 04:35 | 0.95909 | 20.42702 | 35902 ft | 487 kts | 331° |
| 2026-04-24 04:35 | 1.01827 | 20.39418 | 35910 ft | 487 kts | 331° |
| 2026-04-24 04:36 | 1.07767 | 20.36120 | 35909 ft | 487 kts | 331° |
| 2026-04-24 04:36 | 1.13695 | 20.32830 | 35906 ft | 487 kts | 331° |
| 2026-04-24 04:37 | 1.19580 | 20.29563 | 35889 ft | 487 kts | 331° |
| 2026-04-24 04:37 | 1.25527 | 20.26261 | 35884 ft | 487 kts | 331° |
| 2026-04-24 04:38 | 1.31324 | 20.23043 | 35885 ft | 487 kts | 331° |
| 2026-04-24 04:38 | 1.37244 | 20.19755 | 35892 ft | 487 kts | 331° |
| 2026-04-24 04:39 | 1.43144 | 20.16480 | 35908 ft | 487 kts | 331° |
| 2026-04-24 04:39 | 1.49097 | 20.13178 | 35914 ft | 487 kts | 331° |
| 2026-04-24 04:40 | 1.55016 | 20.09897 | 35889 ft | 488 kts | 331° |
| 2026-04-24 04:40 | 1.60952 | 20.06605 | 35884 ft | 488 kts | 331° |
| 2026-04-24 04:41 | 1.66902 | 20.03305 | 35888 ft | 489 kts | 331° |
| 2026-04-24 04:41 | 1.72821 | 20.00022 | 35895 ft | 489 kts | 331° |
| 2026-04-24 04:42 | 1.78765 | 19.96724 | 35910 ft | 489 kts | 331° |
| 2026-04-24 04:42 | 1.84749 | 19.93406 | 35905 ft | 489 kts | 331° |
| 2026-04-24 04:43 | 1.90684 | 19.90120 | 35902 ft | 489 kts | 331° |
| 2026-04-24 04:43 | 1.96614 | 19.86837 | 35880 ft | 490 kts | 331° |
| 2026-04-24 04:44 | 2.02595 | 19.83525 | 35882 ft | 490 kts | 331° |
| 2026-04-24 04:44 | 2.08514 | 19.80247 | 35885 ft | 490 kts | 331° |
| 2026-04-24 04:45 | 2.14505 | 19.76928 | 35907 ft | 489 kts | 330° |
| 2026-04-24 04:45 | 2.20438 | 19.73642 | 35911 ft | 490 kts | 330° |
| 2026-04-24 04:46 | 2.26402 | 19.70338 | 35911 ft | 490 kts | 330° |
| 2026-04-24 04:46 | 2.32367 | 19.67018 | 35892 ft | 490 kts | 330° |
| 2026-04-24 04:47 | 2.38312 | 19.63697 | 35888 ft | 490 kts | 330° |
| 2026-04-24 04:47 | 2.44249 | 19.60383 | 35891 ft | 490 kts | 330° |
| 2026-04-24 04:48 | 2.50219 | 19.57051 | 35897 ft | 490 kts | 330° |
| 2026-04-24 04:48 | 2.56152 | 19.53740 | 35909 ft | 490 kts | 330° |
| 2026-04-24 04:49 | 2.62103 | 19.50418 | 35916 ft | 490 kts | 330° |
| 2026-04-24 04:49 | 2.68050 | 19.47101 | 35897 ft | 490 kts | 330° |
| 2026-04-24 04:50 | 2.74004 | 19.43785 | 35892 ft | 490 kts | 330° |
| 2026-04-24 04:50 | 2.79962 | 19.40467 | 35892 ft | 490 kts | 330° |
| 2026-04-24 04:51 | 2.85901 | 19.37158 | 35896 ft | 490 kts | 330° |
| 2026-04-24 04:51 | 2.91860 | 19.33838 | 35915 ft | 490 kts | 330° |
| 2026-04-24 04:52 | 2.97809 | 19.30522 | 35915 ft | 490 kts | 330° |
| 2026-04-24 04:52 | 3.03772 | 19.27198 | 35895 ft | 490 kts | 330° |
| 2026-04-24 04:53 | 3.09720 | 19.23883 | 35891 ft | 490 kts | 330° |
| 2026-04-24 04:53 | 3.15702 | 19.20548 | 35885 ft | 490 kts | 330° |
| 2026-04-24 04:54 | 3.21652 | 19.17230 | 35893 ft | 490 kts | 330° |
| 2026-04-24 04:54 | 3.27616 | 19.13904 | 35910 ft | 490 kts | 330° |
| 2026-04-24 04:55 | 3.33560 | 19.10589 | 35911 ft | 490 kts | 330° |
| 2026-04-24 04:55 | 3.39513 | 19.07268 | 35894 ft | 491 kts | 330° |
| 2026-04-24 04:56 | 3.45505 | 19.03925 | 35888 ft | 491 kts | 330° |
| 2026-04-24 04:56 | 3.51451 | 19.00608 | 35888 ft | 491 kts | 330° |
| 2026-04-24 04:57 | 3.57399 | 18.97304 | 35893 ft | 491 kts | 330° |
| 2026-04-24 04:57 | 3.63398 | 18.93982 | 35905 ft | 491 kts | 330° |
| 2026-04-24 04:58 | 3.69352 | 18.90680 | 35912 ft | 491 kts | 330° |
| 2026-04-24 04:58 | 3.75351 | 18.87353 | 35908 ft | 491 kts | 330° |
| 2026-04-24 04:59 | 3.81298 | 18.84053 | 35890 ft | 491 kts | 330° |
| 2026-04-24 04:59 | 3.87263 | 18.80743 | 35885 ft | 491 kts | 330° |
| 2026-04-24 05:00 | 3.93250 | 18.77420 | 35898 ft | 490 kts | 330° |
| 2026-04-24 05:00 | 3.99193 | 18.74121 | 35911 ft | 490 kts | 330° |
| 2026-04-24 05:01 | 4.05139 | 18.70804 | 35912 ft | 489 kts | 330° |
| 2026-04-24 05:01 | 4.11084 | 18.67470 | 35910 ft | 489 kts | 330° |
| 2026-04-24 05:02 | 4.17057 | 18.64123 | 35889 ft | 490 kts | 330° |
| 2026-04-24 05:02 | 4.22988 | 18.60801 | 35899 ft | 489 kts | 330° |
| 2026-04-24 05:03 | 4.28936 | 18.57469 | 35919 ft | 489 kts | 330° |
| 2026-04-24 05:03 | 4.34842 | 18.54160 | 35925 ft | 488 kts | 330° |
| 2026-04-24 05:04 | 4.40884 | 18.51117 | 35920 ft | 488 kts | 336° |
| 2026-04-24 05:04 | 4.47138 | 18.48381 | 35901 ft | 488 kts | 336° |
| 2026-04-24 05:05 | 4.53328 | 18.45647 | 35896 ft | 488 kts | 336° |
| 2026-04-24 05:05 | 4.59544 | 18.42900 | 35896 ft | 488 kts | 336° |
| 2026-04-24 05:06 | 4.65777 | 18.40146 | 35909 ft | 488 kts | 336° |
| 2026-04-24 05:06 | 4.71983 | 18.37404 | 35911 ft | 488 kts | 336° |
| 2026-04-24 05:07 | 4.78169 | 18.34671 | 35905 ft | 488 kts | 335° |
| 2026-04-24 05:07 | 4.84415 | 18.31910 | 35886 ft | 488 kts | 335° |
| 2026-04-24 05:08 | 4.90618 | 18.29168 | 35888 ft | 488 kts | 335° |
| 2026-04-24 05:08 | 4.96802 | 18.26433 | 35903 ft | 487 kts | 335° |
| 2026-04-24 05:09 | 5.02975 | 18.23703 | 35902 ft | 487 kts | 335° |
| 2026-04-24 05:09 | 5.09197 | 18.20952 | 35906 ft | 487 kts | 335° |
| 2026-04-24 05:10 | 5.15377 | 18.18217 | 35901 ft | 486 kts | 335° |
| 2026-04-24 05:10 | 5.21576 | 18.15475 | 35900 ft | 486 kts | 335° |
| 2026-04-24 05:11 | 5.27721 | 18.12758 | 35906 ft | 485 kts | 335° |
| 2026-04-24 05:11 | 5.33898 | 18.10026 | 35903 ft | 485 kts | 335° |
| 2026-04-24 05:12 | 5.40042 | 18.07309 | 35902 ft | 484 kts | 335° |
| 2026-04-24 05:12 | 5.46235 | 18.04569 | 35904 ft | 484 kts | 335° |
| 2026-04-24 05:13 | 5.55464 | 18.00484 | 35895 ft | 483 kts | 335° |
| 2026-04-24 05:14 | 5.61596 | 17.97770 | 35897 ft | 483 kts | 335° |
| 2026-04-24 05:14 | 5.67765 | 17.95039 | 35896 ft | 483 kts | 335° |
| 2026-04-24 05:15 | 5.73908 | 17.92316 | 35894 ft | 483 kts | 335° |
| 2026-04-24 05:15 | 5.80028 | 17.89607 | 35898 ft | 483 kts | 335° |
| 2026-04-24 05:16 | 5.86201 | 17.86872 | 35891 ft | 483 kts | 335° |
| 2026-04-24 05:16 | 5.92320 | 17.84159 | 35893 ft | 482 kts | 335° |
| 2026-04-24 05:17 | 5.98465 | 17.81435 | 35888 ft | 482 kts | 335° |
| 2026-04-24 05:17 | 6.04592 | 17.78718 | 35891 ft | 482 kts | 335° |
| 2026-04-24 05:18 | 6.10731 | 17.75995 | 35890 ft | 482 kts | 335° |
| 2026-04-24 05:18 | 6.16836 | 17.73287 | 35887 ft | 481 kts | 335° |
| 2026-04-24 05:19 | 6.22984 | 17.70559 | 35883 ft | 481 kts | 335° |
| 2026-04-24 05:19 | 6.29095 | 17.67847 | 35882 ft | 480 kts | 336° |
| 2026-04-24 05:20 | 6.35161 | 17.65153 | 35879 ft | 480 kts | 336° |
| 2026-04-24 05:20 | 6.41273 | 17.62439 | 35878 ft | 479 kts | 336° |
| 2026-04-24 05:21 | 6.47356 | 17.59737 | 35876 ft | 479 kts | 336° |
| 2026-04-24 05:21 | 6.52465 | 17.57467 | 35874 ft | 478 kts | 336° |
| 2026-04-24 05:22 | 6.58518 | 17.54776 | 35869 ft | 478 kts | 336° |
| 2026-04-24 05:22 | 6.64597 | 17.52074 | 35863 ft | 478 kts | 336° |
| 2026-04-24 05:23 | 6.70687 | 17.49365 | 35864 ft | 478 kts | 336° |
| 2026-04-24 05:23 | 6.76742 | 17.46668 | 35860 ft | 478 kts | 336° |
| 2026-04-24 05:24 | 6.82829 | 17.43957 | 35860 ft | 478 kts | 336° |
| 2026-04-24 05:24 | 6.88898 | 17.41254 | 35852 ft | 478 kts | 336° |
| 2026-04-24 05:25 | 6.95000 | 17.38535 | 35856 ft | 478 kts | 336° |
| 2026-04-24 05:25 | 7.01056 | 17.35836 | 35863 ft | 478 kts | 336° |
| 2026-04-24 05:26 | 7.07151 | 17.33119 | 35855 ft | 478 kts | 336° |
| 2026-04-24 05:26 | 7.13223 | 17.30411 | 35858 ft | 478 kts | 336° |
| 2026-04-24 05:27 | 7.19272 | 17.27713 | 35851 ft | 478 kts | 336° |
| 2026-04-24 05:27 | 7.25345 | 17.25004 | 35852 ft | 478 kts | 336° |
| 2026-04-24 05:28 | 7.31439 | 17.22285 | 35840 ft | 478 kts | 336° |
| 2026-04-24 05:28 | 7.37501 | 17.19585 | 35837 ft | 477 kts | 336° |
| 2026-04-24 05:29 | 7.43570 | 17.16881 | 35840 ft | 477 kts | 336° |
| 2026-04-24 05:29 | 7.49628 | 17.14181 | 35840 ft | 477 kts | 336° |
| 2026-04-24 05:30 | 7.55677 | 17.11484 | 35841 ft | 476 kts | 336° |
| 2026-04-24 05:30 | 7.61736 | 17.08781 | 35837 ft | 476 kts | 336° |
| 2026-04-24 05:31 | 7.67811 | 17.06068 | 35837 ft | 476 kts | 336° |
| 2026-04-24 05:31 | 7.73858 | 17.03364 | 35833 ft | 476 kts | 336° |
| 2026-04-24 05:32 | 7.79904 | 17.00661 | 35838 ft | 476 kts | 336° |
| 2026-04-24 05:32 | 7.85926 | 16.97968 | 35836 ft | 475 kts | 336° |
| 2026-04-24 05:33 | 7.91998 | 16.95252 | 35831 ft | 475 kts | 336° |
| 2026-04-24 05:33 | 7.98019 | 16.92558 | 35831 ft | 475 kts | 336° |
| 2026-04-24 05:34 | 8.07062 | 16.88509 | 35831 ft | 474 kts | 336° |
| 2026-04-24 05:34 | 8.13085 | 16.85811 | 35833 ft | 474 kts | 336° |
| 2026-04-24 05:35 | 8.19106 | 16.83115 | 35826 ft | 474 kts | 336° |
| 2026-04-24 05:35 | 8.25135 | 16.80413 | 35807 ft | 474 kts | 336° |
| 2026-04-24 05:36 | 8.31175 | 16.77705 | 35810 ft | 475 kts | 336° |
| 2026-04-24 05:36 | 8.37182 | 16.75012 | 35810 ft | 475 kts | 336° |
| 2026-04-24 05:37 | 8.43229 | 16.72299 | 35831 ft | 475 kts | 336° |
| 2026-04-24 05:37 | 8.49266 | 16.69591 | 35825 ft | 475 kts | 335° |
| 2026-04-24 05:38 | 8.55350 | 16.66859 | 35804 ft | 476 kts | 335° |
| 2026-04-24 05:38 | 8.61365 | 16.64158 | 35798 ft | 476 kts | 335° |
| 2026-04-24 05:39 | 8.67431 | 16.61433 | 35802 ft | 477 kts | 335° |
| 2026-04-24 05:39 | 8.73500 | 16.58706 | 35820 ft | 477 kts | 335° |
| 2026-04-24 05:40 | 8.79540 | 16.55991 | 35819 ft | 477 kts | 335° |
| 2026-04-24 05:40 | 8.85637 | 16.53250 | 35798 ft | 478 kts | 335° |
| 2026-04-24 05:41 | 8.91692 | 16.50526 | 35793 ft | 478 kts | 335° |
| 2026-04-24 05:41 | 8.97721 | 16.47812 | 35810 ft | 478 kts | 335° |
| 2026-04-24 05:42 | 9.03848 | 16.45054 | 35817 ft | 478 kts | 335° |
| 2026-04-24 05:42 | 9.09913 | 16.42323 | 35808 ft | 479 kts | 335° |
| 2026-04-24 05:43 | 9.15995 | 16.39583 | 35803 ft | 479 kts | 335° |
| 2026-04-24 05:43 | 9.22052 | 16.36853 | 35803 ft | 479 kts | 335° |
| 2026-04-24 05:44 | 9.28149 | 16.34103 | 35804 ft | 479 kts | 335° |
| 2026-04-24 05:44 | 9.34218 | 16.31366 | 35798 ft | 479 kts | 335° |
| 2026-04-24 05:45 | 9.40319 | 16.28615 | 35805 ft | 479 kts | 335° |
| 2026-04-24 05:45 | 9.46385 | 16.25877 | 35803 ft | 479 kts | 335° |
| 2026-04-24 05:46 | 9.52476 | 16.23127 | 35793 ft | 480 kts | 335° |
| 2026-04-24 05:46 | 9.58565 | 16.20377 | 35795 ft | 480 kts | 335° |
| 2026-04-24 05:47 | 9.64677 | 16.17616 | 35796 ft | 480 kts | 335° |
| 2026-04-24 05:47 | 9.70764 | 16.14864 | 35799 ft | 480 kts | 335° |
| 2026-04-24 05:48 | 9.76848 | 16.12113 | 35802 ft | 480 kts | 335° |
| 2026-04-24 05:48 | 9.82950 | 16.09353 | 35801 ft | 480 kts | 335° |
| 2026-04-24 05:49 | 9.89044 | 16.06594 | 35804 ft | 480 kts | 335° |
| 2026-04-24 05:49 | 9.95132 | 16.03838 | 35809 ft | 480 kts | 335° |
| 2026-04-24 05:50 | 10.01250 | 16.01067 | 35807 ft | 480 kts | 335° |
| 2026-04-24 05:50 | 10.07343 | 15.98307 | 35791 ft | 480 kts | 335° |
| 2026-04-24 05:51 | 10.13441 | 15.95542 | 35804 ft | 480 kts | 335° |
| 2026-04-24 05:51 | 10.19521 | 15.92785 | 35810 ft | 479 kts | 335° |
| 2026-04-24 05:52 | 10.25594 | 15.90030 | 35805 ft | 479 kts | 335° |
| 2026-04-24 05:52 | 10.31671 | 15.87271 | 35809 ft | 478 kts | 335° |
| 2026-04-24 05:53 | 10.37760 | 15.84505 | 35808 ft | 478 kts | 335° |
| 2026-04-24 05:53 | 10.43790 | 15.81765 | 35810 ft | 477 kts | 335° |
| 2026-04-24 05:54 | 10.49845 | 15.79013 | 35807 ft | 476 kts | 335° |
| 2026-04-24 05:54 | 10.55882 | 15.76267 | 35788 ft | 476 kts | 335° |
| 2026-04-24 05:55 | 10.61933 | 15.73514 | 35807 ft | 475 kts | 335° |
| 2026-04-24 05:55 | 10.67971 | 15.70767 | 35815 ft | 475 kts | 335° |
| 2026-04-24 05:56 | 10.73962 | 15.68039 | 35808 ft | 475 kts | 335° |
| 2026-04-24 05:56 | 10.79994 | 15.65291 | 35791 ft | 475 kts | 335° |
| 2026-04-24 05:57 | 10.86042 | 15.62534 | 35796 ft | 475 kts | 335° |
| 2026-04-24 05:57 | 10.92042 | 15.59799 | 35791 ft | 475 kts | 335° |
| 2026-04-24 05:58 | 10.98107 | 15.57032 | 35790 ft | 475 kts | 335° |
| 2026-04-24 05:58 | 11.04110 | 15.54293 | 35788 ft | 475 kts | 334° |
| 2026-04-24 05:59 | 11.10156 | 15.51532 | 35782 ft | 476 kts | 334° |
| 2026-04-24 05:59 | 11.16212 | 15.48765 | 35782 ft | 476 kts | 334° |
| 2026-04-24 06:00 | 11.22255 | 15.46004 | 35784 ft | 477 kts | 334° |
| 2026-04-24 06:00 | 11.28308 | 15.43237 | 35784 ft | 477 kts | 334° |
| 2026-04-24 06:01 | 11.34388 | 15.40456 | 35784 ft | 478 kts | 334° |
| 2026-04-24 06:01 | 11.40427 | 15.37693 | 35786 ft | 479 kts | 334° |
| 2026-04-24 06:02 | 11.46502 | 15.34911 | 35790 ft | 479 kts | 334° |
| 2026-04-24 06:02 | 11.52589 | 15.32123 | 35788 ft | 480 kts | 334° |
| 2026-04-24 06:03 | 11.58656 | 15.29342 | 35791 ft | 480 kts | 334° |
| 2026-04-24 06:03 | 11.64780 | 15.26534 | 35789 ft | 480 kts | 334° |
| 2026-04-24 06:04 | 11.70843 | 15.23753 | 35793 ft | 480 kts | 334° |
| 2026-04-24 06:04 | 11.76936 | 15.20957 | 35794 ft | 479 kts | 334° |
| 2026-04-24 06:05 | 11.83003 | 15.18171 | 35794 ft | 479 kts | 334° |
| 2026-04-24 06:05 | 11.89107 | 15.15366 | 35788 ft | 478 kts | 334° |
| 2026-04-24 06:06 | 11.95161 | 15.12584 | 35788 ft | 478 kts | 334° |
| 2026-04-24 06:06 | 12.01193 | 15.09810 | 35782 ft | 477 kts | 334° |
| 2026-04-24 06:07 | 12.07225 | 15.07035 | 35782 ft | 476 kts | 334° |
| 2026-04-24 06:07 | 12.13297 | 15.04260 | 35779 ft | 475 kts | 336° |
| 2026-04-24 06:08 | 12.19576 | 15.02179 | 35778 ft | 476 kts | 341° |
| 2026-04-24 06:08 | 12.25909 | 15.00256 | 35775 ft | 476 kts | 341° |
| 2026-04-24 06:09 | 12.32275 | 14.98306 | 35778 ft | 475 kts | 341° |
| 2026-04-24 06:09 | 12.38607 | 14.96368 | 35781 ft | 475 kts | 341° |
| 2026-04-24 06:10 | 12.44918 | 14.94435 | 35781 ft | 475 kts | 341° |
| 2026-04-24 06:11 | 12.54401 | 14.91531 | 35789 ft | 474 kts | 341° |
| 2026-04-24 06:11 | 12.60737 | 14.89589 | 35785 ft | 474 kts | 341° |
| 2026-04-24 06:12 | 12.67027 | 14.87660 | 35791 ft | 474 kts | 341° |
| 2026-04-24 06:12 | 12.73335 | 14.85725 | 35788 ft | 474 kts | 341° |
| 2026-04-24 06:13 | 12.79658 | 14.83784 | 35792 ft | 473 kts | 341° |
| 2026-04-24 06:13 | 12.85948 | 14.81852 | 35799 ft | 473 kts | 341° |
| 2026-04-24 06:14 | 12.92237 | 14.79919 | 35796 ft | 473 kts | 341° |
| 2026-04-24 06:14 | 12.98554 | 14.77977 | 35799 ft | 473 kts | 340° |
| 2026-04-24 06:15 | 13.04840 | 14.76043 | 35798 ft | 472 kts | 340° |
| 2026-04-24 06:15 | 13.11144 | 14.74103 | 35800 ft | 472 kts | 340° |
| 2026-04-24 06:16 | 13.17410 | 14.72173 | 35802 ft | 472 kts | 340° |
| 2026-04-24 06:16 | 13.22677 | 14.70550 | 35804 ft | 472 kts | 340° |
| 2026-04-24 06:17 | 13.28930 | 14.68623 | 35805 ft | 472 kts | 340° |
| 2026-04-24 06:17 | 13.35257 | 14.66671 | 35803 ft | 472 kts | 340° |
| 2026-04-24 06:18 | 13.41513 | 14.64741 | 35806 ft | 471 kts | 340° |
| 2026-04-24 06:18 | 13.47781 | 14.62805 | 35805 ft | 471 kts | 340° |
| 2026-04-24 06:19 | 13.54045 | 14.60870 | 35810 ft | 471 kts | 340° |
| 2026-04-24 06:19 | 13.60328 | 14.58929 | 35808 ft | 470 kts | 340° |
| 2026-04-24 06:20 | 13.66583 | 14.56994 | 35811 ft | 470 kts | 340° |
| 2026-04-24 06:20 | 13.72843 | 14.55057 | 35809 ft | 469 kts | 340° |
| 2026-04-24 06:21 | 13.79080 | 14.53126 | 35810 ft | 469 kts | 340° |
| 2026-04-24 06:21 | 13.85312 | 14.51195 | 35810 ft | 468 kts | 340° |
| 2026-04-24 06:22 | 13.91529 | 14.49268 | 35810 ft | 468 kts | 340° |
| 2026-04-24 06:22 | 13.97785 | 14.47328 | 35810 ft | 467 kts | 340° |
| 2026-04-24 06:23 | 14.03992 | 14.45402 | 35809 ft | 467 kts | 340° |
| 2026-04-24 06:23 | 14.10207 | 14.43472 | 35809 ft | 466 kts | 340° |
| 2026-04-24 06:24 | 14.16420 | 14.41542 | 35802 ft | 466 kts | 339° |
| 2026-04-24 06:24 | 14.22608 | 14.39618 | 35804 ft | 466 kts | 339° |
| 2026-04-24 06:25 | 14.28811 | 14.37688 | 35802 ft | 466 kts | 339° |
| 2026-04-24 06:25 | 14.34988 | 14.35766 | 35797 ft | 466 kts | 339° |
| 2026-04-24 06:26 | 14.41171 | 14.33841 | 35800 ft | 466 kts | 339° |
| 2026-04-24 06:26 | 14.47392 | 14.31901 | 35803 ft | 466 kts | 339° |
| 2026-04-24 06:27 | 14.53619 | 14.29959 | 35803 ft | 466 kts | 339° |
| 2026-04-24 06:27 | 14.59784 | 14.28036 | 35803 ft | 467 kts | 339° |
| 2026-04-24 06:28 | 14.66043 | 14.26083 | 35807 ft | 467 kts | 339° |
| 2026-04-24 06:28 | 14.72244 | 14.24147 | 35811 ft | 467 kts | 339° |
| 2026-04-24 06:29 | 14.78471 | 14.22201 | 35810 ft | 468 kts | 339° |
| 2026-04-24 06:29 | 14.84692 | 14.20256 | 35806 ft | 468 kts | 339° |
| 2026-04-24 06:30 | 14.90891 | 14.18317 | 35811 ft | 468 kts | 339° |
| 2026-04-24 06:30 | 14.97171 | 14.16352 | 35816 ft | 469 kts | 339° |
| 2026-04-24 06:31 | 15.03408 | 14.14398 | 35818 ft | 469 kts | 339° |
| 2026-04-24 06:31 | 15.09629 | 14.12448 | 35818 ft | 469 kts | 339° |
| 2026-04-24 06:32 | 15.15876 | 14.10488 | 35823 ft | 469 kts | 339° |
| 2026-04-24 06:32 | 15.22113 | 14.08532 | 35824 ft | 469 kts | 339° |
| 2026-04-24 06:33 | 15.28368 | 14.06568 | 35827 ft | 469 kts | 338° |
| 2026-04-24 06:33 | 15.34590 | 14.04613 | 35823 ft | 469 kts | 338° |
| 2026-04-24 06:34 | 15.40829 | 14.02651 | 35830 ft | 468 kts | 338° |
| 2026-04-24 06:34 | 15.47072 | 14.00687 | 35827 ft | 468 kts | 338° |
| 2026-04-24 06:35 | 15.53314 | 13.98722 | 35830 ft | 468 kts | 338° |
| 2026-04-24 06:35 | 15.59514 | 13.96769 | 35834 ft | 467 kts | 338° |
| 2026-04-24 06:36 | 15.65744 | 13.94806 | 35832 ft | 467 kts | 338° |
| 2026-04-24 06:36 | 15.71942 | 13.92851 | 35828 ft | 467 kts | 338° |
| 2026-04-24 06:37 | 15.78177 | 13.90884 | 35835 ft | 466 kts | 338° |
| 2026-04-24 06:37 | 15.84369 | 13.88928 | 35835 ft | 466 kts | 338° |
| 2026-04-24 06:38 | 15.90557 | 13.86973 | 35829 ft | 466 kts | 338° |
| 2026-04-24 06:38 | 15.96762 | 13.85011 | 35839 ft | 466 kts | 338° |
| 2026-04-24 06:39 | 16.02954 | 13.83052 | 35843 ft | 465 kts | 338° |
| 2026-04-24 06:39 | 16.09121 | 13.81099 | 35841 ft | 465 kts | 338° |
| 2026-04-24 06:40 | 16.15303 | 13.79140 | 35838 ft | 464 kts | 338° |
| 2026-04-24 06:40 | 16.21513 | 13.77171 | 35836 ft | 464 kts | 338° |
| 2026-04-24 06:41 | 16.27693 | 13.75211 | 35848 ft | 464 kts | 338° |
| 2026-04-24 06:41 | 16.33860 | 13.73253 | 35836 ft | 464 kts | 338° |
| 2026-04-24 06:42 | 16.40060 | 13.71284 | 35836 ft | 464 kts | 337° |
| 2026-04-24 06:42 | 16.46211 | 13.69329 | 35844 ft | 464 kts | 337° |
| 2026-04-24 06:43 | 16.52363 | 13.67372 | 35854 ft | 463 kts | 337° |
| 2026-04-24 06:43 | 16.58536 | 13.65408 | 35849 ft | 463 kts | 337° |
| 2026-04-24 06:44 | 16.64683 | 13.63450 | 35847 ft | 463 kts | 337° |
| 2026-04-24 06:44 | 16.70836 | 13.61488 | 35848 ft | 462 kts | 337° |
| 2026-04-24 06:45 | 16.77008 | 13.59520 | 35851 ft | 462 kts | 337° |
| 2026-04-24 06:45 | 16.83165 | 13.57555 | 35854 ft | 462 kts | 337° |
| 2026-04-24 06:46 | 16.89274 | 13.55604 | 35859 ft | 461 kts | 337° |
| 2026-04-24 06:46 | 16.95437 | 13.53634 | 35855 ft | 461 kts | 337° |
| 2026-04-24 06:47 | 17.01569 | 13.51673 | 35859 ft | 460 kts | 337° |
| 2026-04-24 06:47 | 17.07672 | 13.49720 | 35857 ft | 460 kts | 337° |
| 2026-04-24 06:48 | 17.13786 | 13.47762 | 35858 ft | 459 kts | 337° |
| 2026-04-24 06:48 | 17.19896 | 13.45805 | 35858 ft | 459 kts | 337° |
| 2026-04-24 06:49 | 17.25971 | 13.43856 | 35858 ft | 459 kts | 336° |
| 2026-04-24 06:49 | 17.32102 | 13.41888 | 35857 ft | 459 kts | 336° |
| 2026-04-24 06:50 | 17.38191 | 13.39932 | 35857 ft | 459 kts | 336° |
| 2026-04-24 06:50 | 17.44277 | 13.37977 | 35855 ft | 458 kts | 336° |
| 2026-04-24 06:51 | 17.50368 | 13.36018 | 35853 ft | 458 kts | 336° |
| 2026-04-24 06:51 | 17.56451 | 13.34060 | 35855 ft | 458 kts | 336° |
| 2026-04-24 06:52 | 17.62541 | 13.32099 | 35854 ft | 458 kts | 336° |
| 2026-04-24 06:52 | 17.68625 | 13.30138 | 35856 ft | 458 kts | 336° |
| 2026-04-24 06:53 | 17.74721 | 13.28172 | 35849 ft | 458 kts | 336° |
| 2026-04-24 06:53 | 17.80800 | 13.26210 | 35854 ft | 458 kts | 336° |
| 2026-04-24 06:54 | 17.86887 | 13.24244 | 35853 ft | 458 kts | 336° |
| 2026-04-24 06:54 | 17.92961 | 13.22281 | 35850 ft | 458 kts | 336° |
| 2026-04-24 06:55 | 17.99055 | 13.20310 | 35851 ft | 457 kts | 336° |
| 2026-04-24 06:55 | 18.05144 | 13.18340 | 35855 ft | 457 kts | 336° |
| 2026-04-24 06:56 | 18.11184 | 13.16383 | 35859 ft | 457 kts | 336° |
| 2026-04-24 06:56 | 18.17270 | 13.14411 | 35860 ft | 456 kts | 336° |
| 2026-04-24 06:57 | 18.23325 | 13.12447 | 35859 ft | 455 kts | 336° |
| 2026-04-24 06:57 | 18.29350 | 13.10491 | 35859 ft | 455 kts | 336° |
| 2026-04-24 06:58 | 18.35414 | 13.08521 | 35858 ft | 454 kts | 336° |
| 2026-04-24 06:58 | 18.41461 | 13.06555 | 35859 ft | 454 kts | 336° |
| 2026-04-24 06:59 | 18.47492 | 13.04593 | 35859 ft | 453 kts | 336° |
| 2026-04-24 06:59 | 18.53489 | 13.02641 | 35858 ft | 452 kts | 336° |
| 2026-04-24 07:00 | 18.59488 | 13.00687 | 35861 ft | 451 kts | 336° |
| 2026-04-24 07:00 | 18.65495 | 12.98728 | 35859 ft | 450 kts | 336° |
| 2026-04-24 07:01 | 18.71451 | 12.96783 | 35865 ft | 449 kts | 336° |
| 2026-04-24 07:01 | 18.77415 | 12.94836 | 35857 ft | 448 kts | 336° |
| 2026-04-24 07:02 | 18.83369 | 12.92891 | 35854 ft | 447 kts | 336° |
| 2026-04-24 07:02 | 18.89301 | 12.90951 | 35855 ft | 447 kts | 336° |
| 2026-04-24 07:03 | 18.95199 | 12.89000 | 35853 ft | 445 kts | 334° |
| 2026-04-24 07:03 | 19.00806 | 12.86359 | 35855 ft | 436 kts | 325° |
| 2026-04-24 07:04 | 19.05973 | 12.83082 | 35848 ft | 434 kts | 323° |
| 2026-04-24 07:04 | 19.11167 | 12.79790 | 35848 ft | 434 kts | 323° |
| 2026-04-24 07:05 | 19.16329 | 12.76518 | 35850 ft | 434 kts | 323° |
| 2026-04-24 07:05 | 19.21510 | 12.73226 | 35851 ft | 434 kts | 323° |
| 2026-04-24 07:06 | 19.26662 | 12.69948 | 35854 ft | 434 kts | 323° |
| 2026-04-24 07:06 | 19.31836 | 12.66654 | 35854 ft | 434 kts | 323° |
| 2026-04-24 07:07 | 19.36994 | 12.63368 | 35852 ft | 433 kts | 323° |
| 2026-04-24 07:07 | 19.44752 | 12.58421 | 35855 ft | 433 kts | 322° |
| 2026-04-24 07:08 | 19.49908 | 12.55129 | 35857 ft | 433 kts | 322° |
| 2026-04-24 07:08 | 19.55060 | 12.51839 | 35857 ft | 432 kts | 322° |
| 2026-04-24 07:09 | 19.60205 | 12.48550 | 35855 ft | 432 kts | 322° |
| 2026-04-24 07:09 | 19.65336 | 12.45267 | 35858 ft | 432 kts | 322° |
| 2026-04-24 07:10 | 19.70475 | 12.41977 | 35857 ft | 431 kts | 322° |
| 2026-04-24 07:10 | 19.75611 | 12.38686 | 35858 ft | 431 kts | 322° |
| 2026-04-24 07:11 | 19.79888 | 12.35944 | 35844 ft | 431 kts | 322° |
| 2026-04-24 07:11 | 19.85034 | 12.32643 | 35850 ft | 431 kts | 322° |
| 2026-04-24 07:12 | 19.90147 | 12.29360 | 35867 ft | 430 kts | 322° |
| 2026-04-24 07:12 | 19.95259 | 12.26075 | 35871 ft | 430 kts | 322° |
| 2026-04-24 07:13 | 20.00392 | 12.22774 | 35856 ft | 430 kts | 322° |
| 2026-04-24 07:13 | 20.05497 | 12.19488 | 35854 ft | 429 kts | 322° |
| 2026-04-24 07:14 | 20.10614 | 12.16193 | 35859 ft | 429 kts | 322° |
| 2026-04-24 07:14 | 20.15683 | 12.12925 | 35865 ft | 429 kts | 322° |
| 2026-04-24 07:15 | 20.20789 | 12.09632 | 35861 ft | 428 kts | 322° |
| 2026-04-24 07:15 | 20.25902 | 12.06331 | 35865 ft | 428 kts | 322° |
| 2026-04-24 07:16 | 20.30975 | 12.03054 | 35860 ft | 428 kts | 322° |
| 2026-04-24 07:16 | 20.36071 | 11.99759 | 35865 ft | 427 kts | 322° |
| 2026-04-24 07:17 | 20.41145 | 11.96475 | 35860 ft | 427 kts | 322° |
| 2026-04-24 07:17 | 20.46212 | 11.93194 | 35859 ft | 427 kts | 322° |
| 2026-04-24 07:18 | 20.51297 | 11.89899 | 35862 ft | 426 kts | 322° |
| 2026-04-24 07:18 | 20.56343 | 11.86626 | 35858 ft | 426 kts | 322° |
| 2026-04-24 07:19 | 20.61414 | 11.83334 | 35861 ft | 425 kts | 321° |
| 2026-04-24 07:19 | 20.66458 | 11.80054 | 35862 ft | 425 kts | 321° |
| 2026-04-24 07:20 | 20.71510 | 11.76768 | 35861 ft | 424 kts | 321° |
| 2026-04-24 07:20 | 20.76522 | 11.73505 | 35861 ft | 424 kts | 321° |
| 2026-04-24 07:21 | 20.81562 | 11.70221 | 35859 ft | 424 kts | 321° |
| 2026-04-24 07:21 | 20.86603 | 11.66935 | 35858 ft | 423 kts | 321° |
| 2026-04-24 07:22 | 20.91601 | 11.63673 | 35861 ft | 423 kts | 321° |
| 2026-04-24 07:22 | 20.96625 | 11.60392 | 35860 ft | 422 kts | 321° |
| 2026-04-24 07:23 | 21.01615 | 11.57131 | 35861 ft | 421 kts | 321° |
| 2026-04-24 07:23 | 21.06631 | 11.53850 | 35862 ft | 421 kts | 321° |
| 2026-04-24 07:24 | 21.11596 | 11.50600 | 35861 ft | 420 kts | 321° |
| 2026-04-24 07:24 | 21.16587 | 11.47329 | 35850 ft | 420 kts | 321° |
| 2026-04-24 07:25 | 21.21583 | 11.44055 | 35866 ft | 419 kts | 321° |
| 2026-04-24 07:25 | 21.26533 | 11.40808 | 35852 ft | 419 kts | 321° |
| 2026-04-24 07:26 | 21.31482 | 11.37559 | 35853 ft | 419 kts | 321° |
| 2026-04-24 07:26 | 21.36481 | 11.34274 | 35867 ft | 418 kts | 321° |
| 2026-04-24 07:27 | 21.41430 | 11.31020 | 35877 ft | 417 kts | 321° |
| 2026-04-24 07:27 | 21.46370 | 11.27769 | 35866 ft | 417 kts | 321° |
| 2026-04-24 07:28 | 21.51309 | 11.24516 | 35871 ft | 417 kts | 321° |
| 2026-04-24 07:28 | 21.56239 | 11.21266 | 35874 ft | 417 kts | 321° |
| 2026-04-24 07:29 | 21.61182 | 11.18005 | 35874 ft | 416 kts | 320° |
| 2026-04-24 07:29 | 21.66119 | 11.14746 | 35876 ft | 416 kts | 320° |
| 2026-04-24 07:30 | 21.71045 | 11.11491 | 35872 ft | 416 kts | 320° |
| 2026-04-24 07:30 | 21.75988 | 11.08222 | 35879 ft | 416 kts | 320° |
| 2026-04-24 07:31 | 21.80888 | 11.04979 | 35879 ft | 415 kts | 320° |
| 2026-04-24 07:31 | 21.85818 | 11.01713 | 35878 ft | 415 kts | 320° |
| 2026-04-24 07:32 | 21.90715 | 10.98467 | 35881 ft | 415 kts | 320° |
| 2026-04-24 07:32 | 21.95641 | 10.95198 | 35882 ft | 415 kts | 320° |
| 2026-04-24 07:33 | 22.00554 | 10.91936 | 35891 ft | 414 kts | 320° |
| 2026-04-24 07:33 | 22.05439 | 10.88689 | 35882 ft | 414 kts | 320° |
| 2026-04-24 07:34 | 22.10353 | 10.85421 | 35886 ft | 414 kts | 320° |
| 2026-04-24 07:34 | 22.15271 | 10.82147 | 35891 ft | 414 kts | 320° |
| 2026-04-24 07:35 | 22.20140 | 10.78903 | 35894 ft | 414 kts | 320° |
| 2026-04-24 07:35 | 22.25038 | 10.75637 | 35899 ft | 414 kts | 320° |
| 2026-04-24 07:36 | 22.29935 | 10.72369 | 35900 ft | 413 kts | 320° |
| 2026-04-24 07:36 | 22.34824 | 10.69104 | 35903 ft | 413 kts | 320° |
| 2026-04-24 07:37 | 22.39711 | 10.65837 | 35904 ft | 413 kts | 319° |
| 2026-04-24 07:37 | 22.44600 | 10.62566 | 35906 ft | 412 kts | 319° |
| 2026-04-24 07:38 | 22.49465 | 10.59309 | 35907 ft | 412 kts | 319° |
| 2026-04-24 07:38 | 22.54326 | 10.56051 | 35907 ft | 412 kts | 319° |
| 2026-04-24 07:39 | 22.59203 | 10.52780 | 35908 ft | 412 kts | 319° |
| 2026-04-24 07:39 | 22.64066 | 10.49518 | 35914 ft | 412 kts | 319° |
| 2026-04-24 07:40 | 22.69043 | 10.46388 | 35911 ft | 414 kts | 321° |
| 2026-04-24 07:40 | 22.74027 | 10.43321 | 35914 ft | 414 kts | 321° |
| 2026-04-24 07:41 | 22.79029 | 10.40208 | 35918 ft | 414 kts | 321° |
| 2026-04-24 07:41 | 22.84006 | 10.37095 | 35920 ft | 414 kts | 321° |
| 2026-04-24 07:42 | 22.88980 | 10.33980 | 35924 ft | 414 kts | 321° |
| 2026-04-24 07:42 | 22.93983 | 10.30846 | 35926 ft | 414 kts | 320° |
| 2026-04-24 07:43 | 22.98961 | 10.27724 | 35927 ft | 414 kts | 320° |
| 2026-04-24 07:43 | 23.03939 | 10.24599 | 35933 ft | 414 kts | 320° |
| 2026-04-24 07:44 | 23.08918 | 10.21472 | 35931 ft | 414 kts | 320° |
| 2026-04-24 07:44 | 23.13914 | 10.18331 | 35932 ft | 414 kts | 320° |
| 2026-04-24 07:45 | 23.18877 | 10.15208 | 35935 ft | 414 kts | 320° |
| 2026-04-24 07:45 | 23.23880 | 10.12056 | 35935 ft | 414 kts | 320° |
| 2026-04-24 07:46 | 23.28850 | 10.08923 | 35939 ft | 414 kts | 320° |
| 2026-04-24 07:46 | 23.33854 | 10.05767 | 35942 ft | 414 kts | 320° |
| 2026-04-24 07:47 | 23.38817 | 10.02633 | 35941 ft | 414 kts | 320° |
| 2026-04-24 07:47 | 23.43802 | 9.99482 | 35950 ft | 414 kts | 320° |
| 2026-04-24 07:48 | 23.48790 | 9.96327 | 35931 ft | 414 kts | 320° |
| 2026-04-24 07:48 | 23.53760 | 9.93180 | 35938 ft | 414 kts | 320° |
| 2026-04-24 07:49 | 23.58755 | 9.90014 | 35943 ft | 414 kts | 320° |
| 2026-04-24 07:49 | 23.63738 | 9.86854 | 35948 ft | 414 kts | 320° |
| 2026-04-24 07:50 | 23.68708 | 9.83699 | 35956 ft | 415 kts | 320° |
| 2026-04-24 07:50 | 23.73679 | 9.80540 | 35946 ft | 414 kts | 320° |
| 2026-04-24 07:51 | 23.78666 | 9.77369 | 35948 ft | 414 kts | 320° |
| 2026-04-24 07:51 | 23.83660 | 9.74190 | 35947 ft | 414 kts | 320° |
| 2026-04-24 07:52 | 23.88611 | 9.71035 | 35951 ft | 414 kts | 320° |
| 2026-04-24 07:52 | 23.93591 | 9.67859 | 35952 ft | 414 kts | 320° |
| 2026-04-24 07:53 | 23.98566 | 9.64684 | 35951 ft | 413 kts | 320° |
| 2026-04-24 07:53 | 24.03511 | 9.61525 | 35968 ft | 413 kts | 320° |
| 2026-04-24 07:54 | 24.08466 | 9.58357 | 35986 ft | 413 kts | 320° |
| 2026-04-24 07:54 | 24.13445 | 9.55170 | 35999 ft | 413 kts | 320° |
| 2026-04-24 07:55 | 24.18394 | 9.52000 | 36013 ft | 413 kts | 320° |
| 2026-04-24 07:55 | 24.23348 | 9.48824 | 36022 ft | 413 kts | 320° |
| 2026-04-24 07:56 | 24.28303 | 9.45645 | 36023 ft | 413 kts | 320° |
| 2026-04-24 07:56 | 24.33215 | 9.42427 | 36024 ft | 411 kts | 319° |
| 2026-04-24 07:57 | 24.38075 | 9.39179 | 36011 ft | 411 kts | 319° |
| 2026-04-24 07:57 | 24.42974 | 9.35917 | 35995 ft | 411 kts | 319° |
| 2026-04-24 07:58 | 24.47861 | 9.32668 | 36011 ft | 411 kts | 319° |
| 2026-04-24 07:58 | 24.52765 | 9.29405 | 35988 ft | 411 kts | 319° |
| 2026-04-24 07:59 | 24.57640 | 9.26158 | 35991 ft | 412 kts | 319° |
| 2026-04-24 07:59 | 24.62539 | 9.22894 | 35992 ft | 411 kts | 319° |
| 2026-04-24 08:00 | 24.67431 | 9.19631 | 35978 ft | 410 kts | 319° |
| 2026-04-24 08:00 | 24.72294 | 9.16377 | 35985 ft | 410 kts | 319° |
| 2026-04-24 08:01 | 24.77179 | 9.13110 | 35996 ft | 411 kts | 319° |
| 2026-04-24 08:01 | 24.82055 | 9.09851 | 36012 ft | 412 kts | 319° |
| 2026-04-24 08:02 | 24.86955 | 9.06571 | 36020 ft | 413 kts | 319° |
| 2026-04-24 08:02 | 24.91863 | 9.03283 | 36022 ft | 412 kts | 319° |
| 2026-04-24 08:03 | 24.96765 | 8.99993 | 36027 ft | 413 kts | 319° |
| 2026-04-24 08:03 | 25.01658 | 8.96705 | 36035 ft | 413 kts | 319° |
| 2026-04-24 08:04 | 25.06559 | 8.93410 | 36037 ft | 413 kts | 319° |
| 2026-04-24 08:04 | 25.10638 | 8.90664 | 36038 ft | 412 kts | 319° |
| 2026-04-24 08:05 | 25.15533 | 8.87368 | 36042 ft | 412 kts | 319° |
| 2026-04-24 08:05 | 25.20454 | 8.84050 | 36045 ft | 412 kts | 319° |
| 2026-04-24 08:06 | 25.25347 | 8.80749 | 36042 ft | 412 kts | 319° |
| 2026-04-24 08:06 | 25.30228 | 8.77453 | 36036 ft | 412 kts | 318° |
| 2026-04-24 08:07 | 25.35106 | 8.74154 | 36034 ft | 412 kts | 318° |
| 2026-04-24 08:07 | 25.40010 | 8.70836 | 36031 ft | 412 kts | 318° |
| 2026-04-24 08:08 | 25.44890 | 8.67530 | 36032 ft | 413 kts | 319° |
| 2026-04-24 08:09 | 25.52213 | 8.62562 | 36029 ft | 413 kts | 318° |
| 2026-04-24 08:09 | 25.57114 | 8.59235 | 36032 ft | 414 kts | 319° |
| 2026-04-24 08:10 | 25.62035 | 8.55890 | 36034 ft | 415 kts | 319° |
| 2026-04-24 08:10 | 25.66951 | 8.52547 | 36036 ft | 415 kts | 319° |
| 2026-04-24 08:11 | 25.71846 | 8.49213 | 36032 ft | 415 kts | 319° |
| 2026-04-24 08:11 | 25.76752 | 8.45867 | 36031 ft | 415 kts | 319° |
| 2026-04-24 08:12 | 25.81687 | 8.42503 | 36034 ft | 415 kts | 319° |
| 2026-04-24 08:12 | 25.86606 | 8.39142 | 36035 ft | 416 kts | 319° |
| 2026-04-24 08:13 | 25.91562 | 8.35755 | 36024 ft | 417 kts | 319° |
| 2026-04-24 08:13 | 25.96489 | 8.32383 | 36029 ft | 417 kts | 319° |
| 2026-04-24 08:14 | 26.01419 | 8.29012 | 36025 ft | 417 kts | 319° |
| 2026-04-24 08:14 | 26.06399 | 8.25673 | 36025 ft | 418 kts | 319° |
| 2026-04-24 08:15 | 26.11407 | 8.22326 | 36011 ft | 419 kts | 319° |
| 2026-04-24 08:15 | 26.16387 | 8.18988 | 36010 ft | 419 kts | 319° |
| 2026-04-24 08:16 | 26.21380 | 8.15632 | 36010 ft | 420 kts | 319° |
| 2026-04-24 08:16 | 26.26364 | 8.12277 | 36013 ft | 420 kts | 319° |
| 2026-04-24 08:17 | 26.31364 | 8.08909 | 36012 ft | 419 kts | 319° |
| 2026-04-24 08:17 | 26.36376 | 8.05527 | 36011 ft | 420 kts | 319° |
| 2026-04-24 08:18 | 26.41349 | 8.02172 | 36009 ft | 420 kts | 320° |
| 2026-04-24 08:18 | 26.46351 | 7.98793 | 36006 ft | 420 kts | 320° |
| 2026-04-24 08:19 | 26.51355 | 7.95409 | 36007 ft | 421 kts | 320° |
| 2026-04-24 08:19 | 26.56373 | 7.92011 | 36006 ft | 421 kts | 320° |
| 2026-04-24 08:20 | 26.61351 | 7.88636 | 36004 ft | 421 kts | 320° |
| 2026-04-24 08:20 | 26.66389 | 7.85217 | 36005 ft | 422 kts | 320° |
| 2026-04-24 08:21 | 26.71382 | 7.81827 | 35998 ft | 422 kts | 320° |
| 2026-04-24 08:21 | 26.76394 | 7.78420 | 36001 ft | 422 kts | 320° |
| 2026-04-24 08:22 | 26.81408 | 7.75010 | 36003 ft | 423 kts | 320° |
| 2026-04-24 08:22 | 26.86429 | 7.71590 | 36007 ft | 423 kts | 320° |
| 2026-04-24 08:23 | 26.91478 | 7.68146 | 36008 ft | 424 kts | 320° |
| 2026-04-24 08:23 | 26.96495 | 7.64721 | 36008 ft | 424 kts | 320° |
| 2026-04-24 08:24 | 27.01529 | 7.61277 | 36006 ft | 425 kts | 320° |
| 2026-04-24 08:24 | 27.06567 | 7.57830 | 36004 ft | 425 kts | 320° |
| 2026-04-24 08:25 | 27.11604 | 7.54379 | 36009 ft | 426 kts | 320° |
| 2026-04-24 08:25 | 27.16669 | 7.50906 | 36011 ft | 427 kts | 320° |
| 2026-04-24 08:26 | 27.21763 | 7.47410 | 36011 ft | 427 kts | 320° |
| 2026-04-24 08:26 | 27.26799 | 7.43953 | 36005 ft | 427 kts | 320° |
| 2026-04-24 08:27 | 27.31880 | 7.40455 | 36006 ft | 427 kts | 320° |
| 2026-04-24 08:27 | 27.36950 | 7.36962 | 36005 ft | 427 kts | 320° |
| 2026-04-24 08:28 | 27.42015 | 7.33471 | 36013 ft | 428 kts | 320° |
| 2026-04-24 08:28 | 27.47094 | 7.29967 | 35990 ft | 428 kts | 321° |
| 2026-04-24 08:29 | 27.52137 | 7.26483 | 35996 ft | 427 kts | 321° |
| 2026-04-24 08:29 | 27.57216 | 7.22974 | 35997 ft | 427 kts | 321° |
| 2026-04-24 08:30 | 27.62281 | 7.19464 | 36000 ft | 427 kts | 321° |
| 2026-04-24 08:30 | 27.67351 | 7.15948 | 36001 ft | 428 kts | 321° |
| 2026-04-24 08:31 | 27.72386 | 7.12455 | 36006 ft | 428 kts | 321° |
| 2026-04-24 08:31 | 27.77483 | 7.08914 | 36004 ft | 428 kts | 321° |
| 2026-04-24 08:32 | 27.82550 | 7.05390 | 36000 ft | 429 kts | 321° |
| 2026-04-24 08:32 | 27.87615 | 7.01864 | 36004 ft | 429 kts | 321° |
| 2026-04-24 08:33 | 27.92685 | 6.98330 | 36006 ft | 429 kts | 321° |
| 2026-04-24 08:33 | 27.97783 | 6.94774 | 36008 ft | 429 kts | 321° |
| 2026-04-24 08:34 | 28.02846 | 6.91237 | 36009 ft | 429 kts | 321° |
| 2026-04-24 08:34 | 28.07917 | 6.87691 | 36007 ft | 429 kts | 321° |
| 2026-04-24 08:35 | 28.12608 | 6.83666 | 36007 ft | 419 kts | 311° |
| 2026-04-24 08:35 | 28.16478 | 6.78844 | 36005 ft | 413 kts | 302° |
| 2026-04-24 08:36 | 28.19795 | 6.73528 | 36001 ft | 412 kts | 301° |
| 2026-04-24 08:36 | 28.23100 | 6.68259 | 36004 ft | 412 kts | 301° |
| 2026-04-24 08:37 | 28.26434 | 6.62931 | 36006 ft | 412 kts | 301° |
| 2026-04-24 08:37 | 28.29744 | 6.57626 | 36004 ft | 413 kts | 301° |
| 2026-04-24 08:38 | 28.33060 | 6.52304 | 36010 ft | 413 kts | 301° |
| 2026-04-24 08:38 | 28.36358 | 6.47003 | 36007 ft | 413 kts | 301° |
| 2026-04-24 08:39 | 28.39668 | 6.41677 | 36009 ft | 414 kts | 301° |
| 2026-04-24 08:39 | 28.43003 | 6.36305 | 36008 ft | 414 kts | 301° |
| 2026-04-24 08:40 | 28.46298 | 6.30990 | 36010 ft | 414 kts | 301° |
| 2026-04-24 08:40 | 28.49612 | 6.25636 | 36011 ft | 414 kts | 301° |
| 2026-04-24 08:41 | 28.52932 | 6.20267 | 36013 ft | 414 kts | 301° |
| 2026-04-24 08:41 | 28.56233 | 6.14921 | 36010 ft | 414 kts | 301° |
| 2026-04-24 08:42 | 28.59543 | 6.09553 | 36011 ft | 414 kts | 301° |
| 2026-04-24 08:42 | 28.62847 | 6.04190 | 36011 ft | 415 kts | 301° |
| 2026-04-24 08:43 | 28.66167 | 5.98792 | 36012 ft | 415 kts | 301° |
| 2026-04-24 08:43 | 28.69467 | 5.93418 | 36011 ft | 415 kts | 301° |
| 2026-04-24 08:44 | 28.72777 | 5.88025 | 36009 ft | 415 kts | 301° |
| 2026-04-24 08:44 | 28.76090 | 5.82623 | 36008 ft | 415 kts | 301° |
| 2026-04-24 08:45 | 28.79398 | 5.77221 | 36008 ft | 415 kts | 301° |
| 2026-04-24 08:45 | 28.82681 | 5.71850 | 36012 ft | 416 kts | 301° |
| 2026-04-24 08:46 | 28.86000 | 5.66415 | 36007 ft | 416 kts | 301° |
| 2026-04-24 08:46 | 28.89305 | 5.60994 | 36005 ft | 416 kts | 301° |
| 2026-04-24 08:47 | 28.92586 | 5.55607 | 36005 ft | 416 kts | 301° |
| 2026-04-24 08:47 | 28.95890 | 5.50175 | 35999 ft | 416 kts | 301° |
| 2026-04-24 08:48 | 28.99193 | 5.44737 | 36003 ft | 416 kts | 301° |
| 2026-04-24 08:48 | 29.02494 | 5.39294 | 36000 ft | 416 kts | 301° |
| 2026-04-24 08:49 | 29.05777 | 5.33873 | 35996 ft | 417 kts | 301° |
| 2026-04-24 08:49 | 29.09070 | 5.28431 | 35998 ft | 417 kts | 301° |
| 2026-04-24 08:50 | 29.12372 | 5.22965 | 35996 ft | 417 kts | 301° |
| 2026-04-24 08:50 | 29.15654 | 5.17526 | 36002 ft | 417 kts | 301° |
| 2026-04-24 08:51 | 29.18952 | 5.12053 | 35997 ft | 417 kts | 301° |
| 2026-04-24 08:51 | 29.22249 | 5.06573 | 35995 ft | 417 kts | 301° |
| 2026-04-24 08:52 | 29.25526 | 5.01122 | 35994 ft | 418 kts | 301° |
| 2026-04-24 08:52 | 29.28848 | 4.95650 | 35991 ft | 418 kts | 302° |
| 2026-04-24 08:53 | 29.32199 | 4.90209 | 35988 ft | 418 kts | 302° |
| 2026-04-24 08:53 | 29.35530 | 4.84778 | 35990 ft | 419 kts | 302° |
| 2026-04-24 08:54 | 29.38889 | 4.79293 | 35992 ft | 419 kts | 302° |
| 2026-04-24 08:54 | 29.42228 | 4.73827 | 35994 ft | 419 kts | 302° |
| 2026-04-24 08:55 | 29.45580 | 4.68329 | 35992 ft | 420 kts | 302° |
| 2026-04-24 08:55 | 29.48925 | 4.62835 | 35990 ft | 420 kts | 302° |
| 2026-04-24 08:56 | 29.52278 | 4.57323 | 35984 ft | 420 kts | 302° |
| 2026-04-24 08:56 | 29.55614 | 4.51832 | 35997 ft | 421 kts | 302° |
| 2026-04-24 08:57 | 29.58951 | 4.46330 | 35981 ft | 421 kts | 302° |
| 2026-04-24 08:57 | 29.62298 | 4.40806 | 35985 ft | 420 kts | 302° |
| 2026-04-24 08:58 | 29.65630 | 4.35300 | 35986 ft | 420 kts | 302° |
| 2026-04-24 08:58 | 29.68968 | 4.29776 | 35988 ft | 420 kts | 302° |
| 2026-04-24 08:59 | 29.72302 | 4.24283 | 35963 ft | 420 kts | 303° |
| 2026-04-24 08:59 | 29.75864 | 4.18958 | 35965 ft | 421 kts | 304° |
| 2026-04-24 09:00 | 29.78878 | 4.14501 | 35968 ft | 421 kts | 304° |
| 2026-04-24 09:00 | 29.82446 | 4.09153 | 35971 ft | 421 kts | 304° |
| 2026-04-24 09:01 | 29.85982 | 4.03819 | 35972 ft | 421 kts | 304° |
| 2026-04-24 09:01 | 29.89524 | 3.98467 | 35965 ft | 421 kts | 304° |
| 2026-04-24 09:02 | 29.93080 | 3.93087 | 35990 ft | 421 kts | 304° |
| 2026-04-24 09:02 | 29.96635 | 3.87701 | 35972 ft | 422 kts | 304° |
| 2026-04-24 09:03 | 30.00171 | 3.82339 | 35974 ft | 422 kts | 304° |
| 2026-04-24 09:03 | 30.03697 | 3.76904 | 35974 ft | 421 kts | 301° |
| 2026-04-24 09:04 | 30.06940 | 3.71283 | 35972 ft | 421 kts | 301° |
| 2026-04-24 09:04 | 30.10193 | 3.65686 | 35973 ft | 421 kts | 301° |
| 2026-04-24 09:05 | 30.13459 | 3.60057 | 35979 ft | 422 kts | 301° |
| 2026-04-24 09:05 | 30.16709 | 3.54443 | 35973 ft | 422 kts | 301° |
| 2026-04-24 09:06 | 30.19968 | 3.48804 | 35977 ft | 422 kts | 301° |
| 2026-04-24 09:06 | 30.23230 | 3.43151 | 35977 ft | 422 kts | 301° |
| 2026-04-24 09:07 | 30.26491 | 3.37494 | 35983 ft | 422 kts | 301° |
| 2026-04-24 09:07 | 30.31360 | 3.29029 | 35980 ft | 423 kts | 301° |
| 2026-04-24 09:08 | 30.34621 | 3.23349 | 35981 ft | 423 kts | 301° |
| 2026-04-24 09:08 | 30.37871 | 3.17683 | 35981 ft | 423 kts | 301° |
| 2026-04-24 09:09 | 30.41133 | 3.11989 | 35987 ft | 423 kts | 301° |
| 2026-04-24 09:09 | 30.44366 | 3.06334 | 35988 ft | 423 kts | 301° |
| 2026-04-24 09:10 | 30.47623 | 3.00630 | 35992 ft | 423 kts | 301° |
| 2026-04-24 09:10 | 30.50873 | 2.94932 | 35993 ft | 423 kts | 301° |
| 2026-04-24 09:11 | 30.54120 | 2.89229 | 35996 ft | 424 kts | 300° |
| 2026-04-24 09:11 | 30.57667 | 2.83762 | 35993 ft | 427 kts | 308° |
| 2026-04-24 09:12 | 30.61593 | 2.78664 | 35993 ft | 427 kts | 308° |
| 2026-04-24 09:12 | 30.65549 | 2.73468 | 35985 ft | 427 kts | 308° |
| 2026-04-24 09:13 | 30.69473 | 2.68307 | 35996 ft | 428 kts | 308° |
| 2026-04-24 09:13 | 30.73430 | 2.63097 | 35987 ft | 428 kts | 308° |
| 2026-04-24 09:14 | 30.77359 | 2.57918 | 35984 ft | 428 kts | 308° |
| 2026-04-24 09:14 | 30.81301 | 2.52715 | 35990 ft | 428 kts | 308° |
| 2026-04-24 09:15 | 30.85217 | 2.47540 | 35980 ft | 428 kts | 308° |
| 2026-04-24 09:15 | 30.89150 | 2.42334 | 35980 ft | 428 kts | 308° |
| 2026-04-24 09:16 | 30.93080 | 2.37126 | 35984 ft | 429 kts | 308° |
| 2026-04-24 09:16 | 30.97030 | 2.31884 | 35983 ft | 428 kts | 308° |
| 2026-04-24 09:17 | 31.00957 | 2.26667 | 35980 ft | 428 kts | 308° |
| 2026-04-24 09:17 | 31.04867 | 2.21463 | 35976 ft | 428 kts | 308° |
| 2026-04-24 09:18 | 31.08789 | 2.16238 | 35979 ft | 429 kts | 307° |
| 2026-04-24 09:18 | 31.12708 | 2.11009 | 35980 ft | 429 kts | 307° |
| 2026-04-24 09:19 | 31.16653 | 2.05738 | 35972 ft | 429 kts | 307° |
| 2026-04-24 09:19 | 31.20575 | 2.00491 | 35989 ft | 430 kts | 307° |
| 2026-04-24 09:20 | 31.24508 | 1.95222 | 35962 ft | 430 kts | 307° |
| 2026-04-24 09:20 | 31.28424 | 1.89967 | 35963 ft | 430 kts | 307° |
| 2026-04-24 09:21 | 31.32371 | 1.84664 | 35991 ft | 430 kts | 307° |
| 2026-04-24 09:21 | 31.36268 | 1.79422 | 35996 ft | 431 kts | 307° |
| 2026-04-24 09:22 | 31.40208 | 1.74114 | 35973 ft | 431 kts | 307° |
| 2026-04-24 09:22 | 31.44123 | 1.68832 | 35980 ft | 431 kts | 307° |
| 2026-04-24 09:23 | 31.48062 | 1.63509 | 35978 ft | 431 kts | 307° |
| 2026-04-24 09:23 | 31.51969 | 1.58225 | 35979 ft | 431 kts | 307° |
| 2026-04-24 09:24 | 31.55899 | 1.52902 | 35980 ft | 431 kts | 307° |
| 2026-04-24 09:24 | 31.60092 | 1.47864 | 35980 ft | 435 kts | 315° |
| 2026-04-24 09:25 | 31.64680 | 1.43208 | 35974 ft | 436 kts | 314° |
| 2026-04-24 09:25 | 31.69251 | 1.38518 | 35975 ft | 436 kts | 314° |
| 2026-04-24 09:26 | 31.73794 | 1.33850 | 35981 ft | 436 kts | 314° |
| 2026-04-24 09:26 | 31.78360 | 1.29154 | 35983 ft | 436 kts | 314° |
| 2026-04-24 09:27 | 31.82929 | 1.24449 | 35979 ft | 436 kts | 314° |
| 2026-04-24 09:27 | 31.87463 | 1.19749 | 35981 ft | 435 kts | 312° |
| 2026-04-24 09:28 | 31.91512 | 1.14558 | 35978 ft | 432 kts | 307° |
| 2026-04-24 09:28 | 31.95465 | 1.09190 | 35983 ft | 432 kts | 307° |
| 2026-04-24 09:29 | 31.99429 | 1.03830 | 35982 ft | 432 kts | 307° |
| 2026-04-24 09:29 | 32.03371 | 0.98484 | 35985 ft | 433 kts | 307° |
| 2026-04-24 09:30 | 32.07309 | 0.93131 | 35981 ft | 433 kts | 307° |
| 2026-04-24 09:30 | 32.11252 | 0.87761 | 35983 ft | 433 kts | 307° |
| 2026-04-24 09:31 | 32.15202 | 0.82376 | 35987 ft | 434 kts | 307° |
| 2026-04-24 09:31 | 32.19140 | 0.76999 | 35987 ft | 434 kts | 307° |
| 2026-04-24 09:32 | 32.23079 | 0.71612 | 35992 ft | 435 kts | 307° |
| 2026-04-24 09:32 | 32.27048 | 0.66177 | 35988 ft | 435 kts | 307° |
| 2026-04-24 09:33 | 32.30976 | 0.60789 | 35991 ft | 436 kts | 306° |
| 2026-04-24 09:33 | 32.34940 | 0.55346 | 35991 ft | 436 kts | 306° |
| 2026-04-24 09:34 | 32.38893 | 0.49909 | 35998 ft | 437 kts | 306° |
| 2026-04-24 09:34 | 32.42873 | 0.44426 | 35999 ft | 438 kts | 306° |
| 2026-04-24 09:35 | 32.46833 | 0.38963 | 36003 ft | 439 kts | 306° |
| 2026-04-24 09:35 | 32.50790 | 0.33496 | 36005 ft | 439 kts | 306° |
| 2026-04-24 09:36 | 32.54783 | 0.27971 | 36006 ft | 440 kts | 306° |
| 2026-04-24 09:36 | 32.58749 | 0.22475 | 36008 ft | 440 kts | 306° |
| 2026-04-24 09:37 | 32.62741 | 0.16936 | 36010 ft | 441 kts | 306° |
| 2026-04-24 09:37 | 32.66716 | 0.11412 | 36014 ft | 441 kts | 306° |
| 2026-04-24 09:38 | 32.70688 | 0.05882 | 36017 ft | 442 kts | 306° |
| 2026-04-24 09:38 | 32.74694 | 0.00298 | 36018 ft | 443 kts | 306° |
| 2026-04-24 09:39 | 32.78683 | -0.05272 | 36019 ft | 443 kts | 306° |
| 2026-04-24 09:39 | 32.82671 | -0.10849 | 36021 ft | 445 kts | 306° |
| 2026-04-24 09:40 | 32.86675 | -0.16455 | 36032 ft | 445 kts | 306° |
| 2026-04-24 09:40 | 32.90677 | -0.22068 | 36031 ft | 445 kts | 306° |
| 2026-04-24 09:41 | 32.94692 | -0.27709 | 36033 ft | 446 kts | 306° |
| 2026-04-24 09:41 | 32.98681 | -0.33321 | 36033 ft | 446 kts | 306° |
| 2026-04-24 09:42 | 33.02694 | -0.38975 | 36036 ft | 447 kts | 306° |
| 2026-04-24 09:42 | 33.06699 | -0.44627 | 36034 ft | 448 kts | 306° |
| 2026-04-24 09:43 | 33.10745 | -0.50346 | 36036 ft | 449 kts | 306° |
| 2026-04-24 09:43 | 33.14752 | -0.56019 | 36035 ft | 449 kts | 306° |
| 2026-04-24 09:44 | 33.18792 | -0.61748 | 36034 ft | 450 kts | 306° |
| 2026-04-24 09:44 | 33.22811 | -0.67456 | 36035 ft | 451 kts | 306° |
| 2026-04-24 09:45 | 33.26829 | -0.73170 | 36033 ft | 452 kts | 306° |
| 2026-04-24 09:45 | 33.30875 | -0.78934 | 36043 ft | 452 kts | 306° |
| 2026-04-24 09:46 | 33.34941 | -0.84735 | 36037 ft | 453 kts | 305° |
| 2026-04-24 09:46 | 33.38964 | -0.90484 | 36017 ft | 454 kts | 305° |
| 2026-04-24 09:47 | 33.43044 | -0.96325 | 36020 ft | 455 kts | 306° |
| 2026-04-24 09:47 | 33.47073 | -1.02102 | 36028 ft | 456 kts | 305° |
| 2026-04-24 09:48 | 33.51160 | -1.07970 | 36028 ft | 457 kts | 306° |
| 2026-04-24 09:48 | 33.55230 | -1.13824 | 36028 ft | 458 kts | 305° |
| 2026-04-24 09:49 | 33.59312 | -1.19704 | 36032 ft | 459 kts | 306° |
| 2026-04-24 09:49 | 33.63385 | -1.25582 | 36032 ft | 460 kts | 306° |
| 2026-04-24 09:50 | 33.67462 | -1.31474 | 36034 ft | 461 kts | 305° |
| 2026-04-24 09:50 | 33.71563 | -1.37413 | 36038 ft | 461 kts | 306° |
| 2026-04-24 09:51 | 33.75647 | -1.43334 | 36040 ft | 462 kts | 306° |
| 2026-04-24 09:51 | 33.79761 | -1.49308 | 36045 ft | 462 kts | 306° |
| 2026-04-24 09:52 | 33.83841 | -1.55242 | 36046 ft | 463 kts | 306° |
| 2026-04-24 09:52 | 33.88035 | -1.61099 | 36042 ft | 466 kts | 311° |
| 2026-04-24 09:53 | 33.93111 | -1.66068 | 36045 ft | 473 kts | 322° |
| 2026-04-24 09:53 | 33.98608 | -1.70461 | 36049 ft | 474 kts | 322° |
| 2026-04-24 09:54 | 34.04081 | -1.74884 | 36055 ft | 475 kts | 322° |
| 2026-04-24 09:54 | 34.09591 | -1.79341 | 36056 ft | 476 kts | 322° |
| 2026-04-24 09:55 | 34.15071 | -1.83778 | 36063 ft | 477 kts | 322° |
| 2026-04-24 09:55 | 34.20567 | -1.88234 | 36067 ft | 478 kts | 322° |
| 2026-04-24 09:56 | 34.25165 | -1.91970 | 36070 ft | 479 kts | 322° |
| 2026-04-24 09:56 | 34.31621 | -1.97219 | 36080 ft | 479 kts | 322° |
| 2026-04-24 09:57 | 34.37159 | -2.01732 | 36060 ft | 480 kts | 322° |
| 2026-04-24 09:57 | 34.41804 | -2.05523 | 36061 ft | 480 kts | 322° |
| 2026-04-24 09:58 | 34.47337 | -2.10044 | 36064 ft | 481 kts | 322° |
| 2026-04-24 09:58 | 34.52863 | -2.14567 | 36073 ft | 482 kts | 323° |
| 2026-04-24 09:59 | 34.58452 | -2.19150 | 36076 ft | 482 kts | 323° |
| 2026-04-24 09:59 | 34.63974 | -2.23684 | 36076 ft | 482 kts | 323° |
| 2026-04-24 10:00 | 34.69549 | -2.28270 | 36075 ft | 483 kts | 323° |
| 2026-04-24 10:00 | 34.75102 | -2.32845 | 36070 ft | 483 kts | 323° |
| 2026-04-24 10:01 | 34.80663 | -2.37433 | 36096 ft | 483 kts | 323° |
| 2026-04-24 10:01 | 34.86251 | -2.42053 | 36060 ft | 484 kts | 323° |
| 2026-04-24 10:02 | 34.91798 | -2.46647 | 36059 ft | 484 kts | 323° |
| 2026-04-24 10:02 | 34.97355 | -2.51257 | 36060 ft | 485 kts | 322° |
| 2026-04-24 10:03 | 35.02933 | -2.55891 | 36055 ft | 486 kts | 322° |
| 2026-04-24 10:03 | 35.08544 | -2.60562 | 36058 ft | 486 kts | 322° |
| 2026-04-24 10:04 | 35.14146 | -2.65232 | 36073 ft | 486 kts | 322° |
| 2026-04-24 10:04 | 35.19721 | -2.69888 | 36083 ft | 486 kts | 322° |
| 2026-04-24 10:05 | 35.25276 | -2.74535 | 36096 ft | 487 kts | 322° |
| 2026-04-24 10:05 | 35.30905 | -2.79251 | 36093 ft | 490 kts | 323° |
| 2026-04-24 10:06 | 35.39275 | -2.86280 | 36094 ft | 487 kts | 322° |
| 2026-04-24 10:07 | 35.44888 | -2.91002 | 36091 ft | 487 kts | 322° |
| 2026-04-24 10:07 | 35.50476 | -2.95712 | 36085 ft | 488 kts | 322° |
| 2026-04-24 10:08 | 35.56041 | -3.00412 | 36084 ft | 488 kts | 322° |
| 2026-04-24 10:08 | 35.61620 | -3.05131 | 36077 ft | 487 kts | 322° |
| 2026-04-24 10:09 | 35.67232 | -3.09885 | 36077 ft | 487 kts | 322° |
| 2026-04-24 10:09 | 35.72804 | -3.14615 | 36079 ft | 487 kts | 322° |
| 2026-04-24 10:10 | 35.78366 | -3.19344 | 36086 ft | 487 kts | 322° |
| 2026-04-24 10:10 | 35.83872 | -3.24240 | 36078 ft | 485 kts | 317° |
| 2026-04-24 10:11 | 35.88805 | -3.29817 | 36085 ft | 484 kts | 314° |
| 2026-04-24 10:11 | 35.93779 | -3.35467 | 36086 ft | 485 kts | 314° |
| 2026-04-24 10:12 | 35.98709 | -3.41077 | 36093 ft | 486 kts | 314° |
| 2026-04-24 10:12 | 36.03687 | -3.46762 | 36094 ft | 486 kts | 314° |
| 2026-04-24 10:13 | 36.08655 | -3.52448 | 36104 ft | 486 kts | 314° |
| 2026-04-24 10:13 | 36.13601 | -3.58119 | 36100 ft | 486 kts | 314° |
| 2026-04-24 10:14 | 36.18570 | -3.63827 | 36109 ft | 486 kts | 314° |
| 2026-04-24 10:14 | 36.23507 | -3.69508 | 36107 ft | 486 kts | 314° |
| 2026-04-24 10:15 | 36.28451 | -3.75208 | 36104 ft | 486 kts | 314° |
| 2026-04-24 10:15 | 36.33394 | -3.80917 | 36105 ft | 487 kts | 314° |
| 2026-04-24 10:16 | 36.38339 | -3.86639 | 36102 ft | 487 kts | 314° |
| 2026-04-24 10:16 | 36.43311 | -3.92403 | 36103 ft | 487 kts | 314° |
| 2026-04-24 10:17 | 36.48243 | -3.98131 | 36100 ft | 488 kts | 314° |
| 2026-04-24 10:17 | 36.53197 | -4.03894 | 36109 ft | 488 kts | 314° |
| 2026-04-24 10:18 | 36.58142 | -4.09658 | 36106 ft | 488 kts | 314° |
| 2026-04-24 10:18 | 36.63112 | -4.15461 | 36107 ft | 488 kts | 314° |
| 2026-04-24 10:19 | 36.68059 | -4.21248 | 36105 ft | 488 kts | 313° |
| 2026-04-24 10:19 | 36.72985 | -4.27022 | 36105 ft | 488 kts | 313° |
| 2026-04-24 10:20 | 36.77887 | -4.32800 | 36102 ft | 487 kts | 311° |
| 2026-04-24 10:20 | 36.82200 | -4.39304 | 36102 ft | 482 kts | 300° |
| 2026-04-24 10:21 | 36.85476 | -4.46491 | 36101 ft | 478 kts | 294° |
| 2026-04-24 10:21 | 36.88596 | -4.53839 | 36105 ft | 479 kts | 294° |
| 2026-04-24 10:22 | 36.91741 | -4.61230 | 36106 ft | 479 kts | 294° |
| 2026-04-24 10:22 | 36.94846 | -4.68564 | 36104 ft | 479 kts | 294° |
| 2026-04-24 10:23 | 36.97948 | -4.75919 | 36104 ft | 479 kts | 294° |
| 2026-04-24 10:23 | 37.01054 | -4.83300 | 36106 ft | 479 kts | 294° |
| 2026-04-24 10:24 | 37.04161 | -4.90698 | 36107 ft | 479 kts | 294° |
| 2026-04-24 10:24 | 37.07303 | -4.98039 | 36104 ft | 481 kts | 296° |
| 2026-04-24 10:25 | 37.10662 | -5.05275 | 36104 ft | 481 kts | 296° |
| 2026-04-24 10:25 | 37.14018 | -5.12542 | 36103 ft | 481 kts | 296° |
| 2026-04-24 10:26 | 37.17333 | -5.19807 | 36102 ft | 481 kts | 296° |
| 2026-04-24 10:26 | 37.20633 | -5.27069 | 36109 ft | 481 kts | 296° |
| 2026-04-24 10:27 | 37.23950 | -5.34389 | 36104 ft | 482 kts | 296° |
| 2026-04-24 10:27 | 37.27244 | -5.41671 | 36108 ft | 482 kts | 296° |
| 2026-04-24 10:28 | 37.30554 | -5.49005 | 36108 ft | 482 kts | 295° |
| 2026-04-24 10:28 | 37.33849 | -5.56324 | 36115 ft | 482 kts | 295° |
| 2026-04-24 10:29 | 37.37138 | -5.63643 | 36120 ft | 483 kts | 295° |
| 2026-04-24 10:29 | 37.40326 | -5.71087 | 36125 ft | 478 kts | 288° |
| 2026-04-24 10:29 | 37.41299 | -5.75048 | 36122 ft | 472 kts | 277° |
| 2026-04-24 10:30 | 37.41688 | -5.79098 | 36127 ft | 466 kts | 267° |
| 2026-04-24 10:30 | 37.40846 | -5.87085 | 36127 ft | 457 kts | 252° |
| 2026-04-24 10:31 | 37.39430 | -5.94879 | 36130 ft | 458 kts | 253° |
| 2026-04-24 10:31 | 37.38041 | -6.02685 | 36128 ft | 458 kts | 253° |
| 2026-04-24 10:32 | 37.36650 | -6.10460 | 36126 ft | 459 kts | 253° |
| 2026-04-24 10:32 | 37.35235 | -6.18318 | 36120 ft | 458 kts | 253° |
| 2026-04-24 10:33 | 37.33830 | -6.26089 | 36110 ft | 458 kts | 253° |
| 2026-04-24 10:33 | 37.32408 | -6.33918 | 36105 ft | 458 kts | 253° |
| 2026-04-24 10:34 | 37.30994 | -6.41681 | 36103 ft | 458 kts | 253° |
| 2026-04-24 10:34 | 37.29570 | -6.49468 | 36108 ft | 457 kts | 253° |
| 2026-04-24 10:35 | 37.28135 | -6.57276 | 36104 ft | 457 kts | 253° |
| 2026-04-24 10:35 | 37.26708 | -6.64996 | 36104 ft | 457 kts | 253° |
| 2026-04-24 10:36 | 37.25264 | -6.72777 | 36105 ft | 456 kts | 253° |
| 2026-04-24 10:36 | 37.23826 | -6.80506 | 36103 ft | 456 kts | 253° |
| 2026-04-24 10:37 | 37.22378 | -6.88262 | 36104 ft | 456 kts | 253° |
| 2026-04-24 10:37 | 37.20932 | -6.95975 | 36104 ft | 455 kts | 253° |
| 2026-04-24 10:38 | 37.19474 | -7.03722 | 36100 ft | 455 kts | 253° |
| 2026-04-24 10:38 | 37.18011 | -7.11443 | 36100 ft | 455 kts | 253° |
| 2026-04-24 10:39 | 37.16546 | -7.19133 | 36096 ft | 455 kts | 253° |
| 2026-04-24 10:39 | 37.15082 | -7.26813 | 36103 ft | 455 kts | 253° |
| 2026-04-24 10:40 | 37.13836 | -7.34581 | 36098 ft | 458 kts | 262° |
| 2026-04-24 10:40 | 37.14406 | -7.42617 | 36102 ft | 468 kts | 281° |
| 2026-04-24 10:41 | 37.16751 | -7.50281 | 36101 ft | 472 kts | 289° |
| 2026-04-24 10:41 | 37.19237 | -7.57885 | 36108 ft | 472 kts | 288° |
| 2026-04-24 10:42 | 37.21698 | -7.65516 | 36110 ft | 473 kts | 288° |
| 2026-04-24 10:42 | 37.24154 | -7.73155 | 36107 ft | 473 kts | 288° |
| 2026-04-24 10:43 | 37.26617 | -7.80836 | 36110 ft | 473 kts | 288° |
| 2026-04-24 10:43 | 37.29057 | -7.88462 | 36107 ft | 472 kts | 288° |
| 2026-04-24 10:44 | 37.31498 | -7.96111 | 36112 ft | 472 kts | 288° |
| 2026-04-24 10:44 | 37.33941 | -8.03787 | 36113 ft | 472 kts | 288° |
| 2026-04-24 10:45 | 37.36376 | -8.11460 | 36120 ft | 472 kts | 288° |
| 2026-04-24 10:45 | 37.38800 | -8.19119 | 36123 ft | 472 kts | 288° |
| 2026-04-24 10:46 | 37.41212 | -8.26758 | 36127 ft | 472 kts | 288° |
| 2026-04-24 10:46 | 37.43626 | -8.34432 | 36127 ft | 472 kts | 288° |
| 2026-04-24 10:47 | 37.46033 | -8.42091 | 35694 ft | 470 kts | 287° |
| 2026-04-24 10:47 | 37.47245 | -8.45960 | 34793 ft | 474 kts | 287° |
| 2026-04-24 10:47 | 37.48463 | -8.49864 | 33453 ft | 483 kts | 287° |
| 2026-04-24 10:47 | 37.49694 | -8.53813 | 31939 ft | 489 kts | 287° |
| 2026-04-24 10:48 | 37.50943 | -8.57816 | 30443 ft | 492 kts | 287° |
| 2026-04-24 10:48 | 37.52173 | -8.61759 | 29102 ft | 491 kts | 287° |
| 2026-04-24 10:48 | 37.53425 | -8.65774 | 28118 ft | 484 kts | 287° |
| 2026-04-24 10:48 | 37.54642 | -8.69683 | 27313 ft | 478 kts | 287° |
| 2026-04-24 10:49 | 37.55847 | -8.73566 | 26564 ft | 472 kts | 287° |
| 2026-04-24 10:49 | 37.57037 | -8.77402 | 25790 ft | 467 kts | 287° |
| 2026-04-24 10:49 | 37.58346 | -8.81096 | 25012 ft | 467 kts | 295° |
| 2026-04-24 10:49 | 37.60215 | -8.84474 | 24283 ft | 469 kts | 307° |
| 2026-04-24 10:50 | 37.62562 | -8.87315 | 23503 ft | 470 kts | 319° |
| 2026-04-24 10:50 | 37.65334 | -8.89534 | 22683 ft | 470 kts | 330° |
| 2026-04-24 10:50 | 37.68367 | -8.90991 | 21906 ft | 467 kts | 342° |
| 2026-04-24 10:50 | 37.71527 | -8.91900 | 21120 ft | 463 kts | 347° |
| 2026-04-24 10:51 | 37.74655 | -8.92757 | 20345 ft | 457 kts | 345° |
| 2026-04-24 10:51 | 37.77708 | -8.93732 | 19569 ft | 452 kts | 343° |
| 2026-04-24 10:51 | 37.80691 | -8.94819 | 18825 ft | 447 kts | 341° |
| 2026-04-24 10:51 | 37.83649 | -8.95980 | 18025 ft | 441 kts | 340° |
| 2026-04-24 10:52 | 37.86545 | -8.97157 | 17396 ft | 431 kts | 340° |
| 2026-04-24 10:52 | 37.89324 | -8.98296 | 17156 ft | 412 kts | 340° |
| 2026-04-24 10:52 | 37.92007 | -8.99398 | 16949 ft | 393 kts | 340° |
| 2026-04-24 10:52 | 37.93682 | -9.00085 | 16831 ft | 381 kts | 340° |
| 2026-04-24 10:53 | 37.96962 | -9.01432 | 16604 ft | 360 kts | 340° |
| 2026-04-24 10:53 | 37.98530 | -9.02075 | 16402 ft | 353 kts | 340° |
| 2026-04-24 10:53 | 38.01616 | -9.03349 | 15704 ft | 348 kts | 339° |
| 2026-04-24 10:53 | 38.03902 | -9.04315 | 15172 ft | 346 kts | 339° |
| 2026-04-24 10:54 | 38.06164 | -9.05278 | 14669 ft | 343 kts | 339° |
| 2026-04-24 10:54 | 38.07672 | -9.05921 | 14313 ft | 342 kts | 339° |
| 2026-04-24 10:54 | 38.09912 | -9.06873 | 13783 ft | 339 kts | 339° |
| 2026-04-24 10:54 | 38.12148 | -9.07822 | 13226 ft | 336 kts | 339° |
| 2026-04-24 10:55 | 38.14340 | -9.08752 | 12961 ft | 324 kts | 339° |
| 2026-04-24 10:55 | 38.16449 | -9.09463 | 12650 ft | 314 kts | 352° |
| 2026-04-24 10:55 | 38.18600 | -9.09255 | 12180 ft | 309 kts | 17° |
| 2026-04-24 10:55 | 38.20516 | -9.08041 | 11654 ft | 302 kts | 41° |
| 2026-04-24 10:56 | 38.21872 | -9.06090 | 11244 ft | 290 kts | 60° |
| 2026-04-24 10:56 | 38.22908 | -9.03954 | 10918 ft | 279 kts | 63° |
| 2026-04-24 10:56 | 38.23932 | -9.01916 | 10620 ft | 270 kts | 60° |
| 2026-04-24 10:56 | 38.25026 | -9.00004 | 10313 ft | 263 kts | 57° |
| 2026-04-24 10:57 | 38.26158 | -8.98223 | 10008 ft | 259 kts | 54° |
| 2026-04-24 10:57 | 38.27391 | -8.96376 | 9701 ft | 293 kts | 53° |
| 2026-04-24 10:57 | 38.28762 | -8.94372 | 9558 ft | 300 kts | 52° |
| 2026-04-24 10:57 | 38.30198 | -8.92461 | 9445 ft | 294 kts | 41° |
| 2026-04-24 10:58 | 38.31971 | -8.91259 | 9109 ft | 291 kts | 18° |
| 2026-04-24 10:58 | 38.33967 | -8.91010 | 8529 ft | 290 kts | 353° |
| 2026-04-24 10:58 | 38.35852 | -8.91810 | 8117 ft | 278 kts | 325° |
| 2026-04-24 10:58 | 38.37186 | -8.93418 | 7860 ft | 258 kts | 300° |
| 2026-04-24 10:59 | 38.38077 | -8.95330 | 7578 ft | 248 kts | 294° |
| 2026-04-24 10:59 | 38.38926 | -8.97209 | 7314 ft | 241 kts | 292° |
| 2026-04-24 10:59 | 38.39437 | -8.99332 | 7170 ft | 258 kts | 271° |
| 2026-04-24 10:59 | 38.39261 | -9.01572 | 7125 ft | 249 kts | 246° |
| 2026-04-24 11:00 | 38.38419 | -9.03444 | 7121 ft | 245 kts | 230° |
| 2026-04-24 11:00 | 38.37438 | -9.05220 | 7122 ft | 245 kts | 231° |
| 2026-04-24 11:00 | 38.36473 | -9.07017 | 7146 ft | 245 kts | 232° |
| 2026-04-24 11:00 | 38.35526 | -9.08822 | 7131 ft | 246 kts | 232° |
| 2026-04-24 11:01 | 38.34689 | -9.10729 | 7132 ft | 249 kts | 243° |
| 2026-04-24 11:01 | 38.34194 | -9.12856 | 7151 ft | 253 kts | 255° |
| 2026-04-24 11:01 | 38.33902 | -9.15054 | 7137 ft | 253 kts | 256° |
| 2026-04-24 11:01 | 38.33601 | -9.17259 | 7132 ft | 253 kts | 255° |
| 2026-04-24 11:02 | 38.33279 | -9.19483 | 7149 ft | 253 kts | 255° |
| 2026-04-24 11:02 | 38.32949 | -9.21672 | 7137 ft | 253 kts | 255° |
| 2026-04-24 11:02 | 38.32768 | -9.23900 | 7142 ft | 257 kts | 266° |
| 2026-04-24 11:02 | 38.32997 | -9.26186 | 7139 ft | 261 kts | 278° |
| 2026-04-24 11:03 | 38.33394 | -9.28422 | 7139 ft | 261 kts | 278° |
| 2026-04-24 11:03 | 38.33780 | -9.30681 | 7140 ft | 260 kts | 278° |
| 2026-04-24 11:03 | 38.34147 | -9.32926 | 7134 ft | 260 kts | 277° |
| 2026-04-24 11:03 | 38.34517 | -9.35202 | 7136 ft | 261 kts | 279° |
| 2026-04-24 11:04 | 38.35135 | -9.37379 | 7138 ft | 265 kts | 293° |
| 2026-04-24 11:04 | 38.36132 | -9.39364 | 7141 ft | 267 kts | 302° |
| 2026-04-24 11:04 | 38.37196 | -9.41299 | 7138 ft | 267 kts | 302° |
| 2026-04-24 11:04 | 38.38249 | -9.43249 | 7142 ft | 267 kts | 301° |
| 2026-04-24 11:05 | 38.39286 | -9.45201 | 7134 ft | 267 kts | 301° |
| 2026-04-24 11:05 | 38.40381 | -9.47133 | 7146 ft | 268 kts | 308° |
| 2026-04-24 11:05 | 38.41779 | -9.48727 | 7141 ft | 271 kts | 323° |
| 2026-04-24 11:05 | 38.43358 | -9.50016 | 7131 ft | 271 kts | 326° |
| 2026-04-24 11:06 | 38.44942 | -9.51297 | 7134 ft | 271 kts | 328° |
| 2026-04-24 11:06 | 38.46756 | -9.52029 | 7135 ft | 274 kts | 355° |
| 2026-04-24 11:06 | 38.48613 | -9.51715 | 7104 ft | 273 kts | 21° |
| 2026-04-24 11:06 | 38.50191 | -9.50452 | 6845 ft | 269 kts | 47° |
| 2026-04-24 11:07 | 38.51300 | -9.46216 | 6430 ft | 254 kts | 98° |
| 2026-04-24 11:07 | 38.51091 | -9.43999 | 6212 ft | 252 kts | 100° |
| 2026-04-24 11:07 | 38.50956 | -9.41759 | 5998 ft | 253 kts | 94° |
| 2026-04-24 11:08 | 38.50999 | -9.39533 | 5782 ft | 253 kts | 88° |
| 2026-04-24 11:08 | 38.51181 | -9.37282 | 5556 ft | 252 kts | 84° |
| 2026-04-24 11:08 | 38.51428 | -9.35094 | 5336 ft | 250 kts | 83° |
| 2026-04-24 11:08 | 38.51704 | -9.32879 | 5118 ft | 250 kts | 82° |
| 2026-04-24 11:09 | 38.51978 | -9.30713 | 4898 ft | 248 kts | 82° |
| 2026-04-24 11:09 | 38.52244 | -9.28545 | 4678 ft | 247 kts | 82° |
| 2026-04-24 11:09 | 38.52503 | -9.26395 | 4465 ft | 244 kts | 82° |
| 2026-04-24 11:09 | 38.52825 | -9.24274 | 4235 ft | 244 kts | 71° |
| 2026-04-24 11:10 | 38.53742 | -9.22480 | 4127 ft | 240 kts | 43° |
| 2026-04-24 11:10 | 38.55117 | -9.21523 | 4132 ft | 218 kts | 14° |
| 2026-04-24 11:10 | 38.56541 | -9.21589 | 4137 ft | 198 kts | 342° |
| 2026-04-24 11:10 | 38.57758 | -9.22427 | 4127 ft | 202 kts | 328° |
| 2026-04-24 11:11 | 38.58982 | -9.23276 | 4113 ft | 199 kts | 341° |
| 2026-04-24 11:11 | 38.60339 | -9.23378 | 4123 ft | 199 kts | 11° |
| 2026-04-24 11:11 | 38.61631 | -9.22826 | 4054 ft | 194 kts | 25° |
| 2026-04-24 11:11 | 38.62816 | -9.22071 | 3914 ft | 186 kts | 28° |
| 2026-04-24 11:12 | 38.63936 | -9.21322 | 3792 ft | 175 kts | 28° |
| 2026-04-24 11:12 | 38.65004 | -9.20651 | 3492 ft | 172 kts | 26° |
| 2026-04-24 11:12 | 38.66056 | -9.20049 | 3326 ft | 159 kts | 24° |
| 2026-04-24 11:12 | 38.67038 | -9.19525 | 3163 ft | 150 kts | 23° |
| 2026-04-24 11:13 | 38.67991 | -9.19015 | 2865 ft | 148 kts | 22° |
| 2026-04-24 11:13 | 38.68926 | -9.18517 | 2542 ft | 147 kts | 21° |
| 2026-04-24 11:13 | 38.69873 | -9.18010 | 2172 ft | 145 kts | 21° |
| 2026-04-24 11:13 | 38.70806 | -9.17508 | 1862 ft | 146 kts | 20° |
| 2026-04-24 11:14 | 38.71740 | -9.17018 | 1552 ft | 145 kts | 21° |
| 2026-04-24 11:14 | 38.72676 | -9.16497 | 1432 ft | 149 kts | 20° |
| 2026-04-24 11:14 | 38.73630 | -9.16000 | 1156 ft | 144 kts | 21° |
| 2026-04-24 11:14 | 38.74526 | -9.15511 | 855 ft | 139 kts | 21° |
| 2026-04-24 11:15 | 38.75434 | -9.15033 | 673 ft | 141 kts | 20° |
| 2026-04-24 11:15 | 38.76342 | -9.14548 | 465 ft | 139 kts | 22° |
| 2026-04-24 11:15 | 38.77210 | -9.14083 | 361 ft | 132 kts | 22° |
| 2026-04-24 11:15 | 38.77792 | -9.13780 | 361 ft | 55 kts | 22° |
| 2026-04-24 11:16 | 38.78082 | -9.13623 | 360 ft | 27 kts | 22° |
| 2026-04-24 11:16 | 38.78199 | -9.13559 | 362 ft | 13 kts | 26° |
| 2026-04-24 11:16 | 38.78205 | -9.13483 | 364 ft | 7 kts | 135° |
| 2026-04-24 11:16 | 38.78149 | -9.13455 | 360 ft | 10 kts | 163° |
| 2026-04-24 11:17 | 38.78068 | -9.13430 | 360 ft | 13 kts | 166° |
| 2026-04-24 11:17 | 38.77972 | -9.13400 | 360 ft | 16 kts | 166° |
| 2026-04-24 11:17 | 38.77858 | -9.13365 | 361 ft | 18 kts | 166° |
| 2026-04-24 11:17 | 38.77766 | -9.13343 | 356 ft | 10 kts | 172° |
| 2026-04-24 11:18 | 38.77689 | -9.13329 | 359 ft | 12 kts | 172° |
| 2026-04-24 11:18 | 38.77633 | -9.13321 | 359 ft | 0 kts | 176° |
| 2026-04-24 11:20 | 38.77632 | -9.13321 | 359 ft | 0 kts | 176° |
| 2026-04-24 11:20 | 38.77606 | -9.13319 | 359 ft | 8 kts | 176° |
| 2026-04-24 11:20 | 38.77524 | -9.13306 | 359 ft | 14 kts | 168° |
| 2026-04-24 11:20 | 38.77423 | -9.13276 | 357 ft | 16 kts | 167° |
| 2026-04-24 11:21 | 38.77307 | -9.13253 | 353 ft | 18 kts | 171° |
| 2026-04-24 11:21 | 38.77179 | -9.13218 | 356 ft | 20 kts | 167° |
| 2026-04-24 11:21 | 38.77086 | -9.13193 | 360 ft | 7 kts | 168° |
| 2026-04-24 11:21 | 38.77033 | -9.13208 | 357 ft | 9 kts | 213° |
| 2026-04-24 11:22 | 38.77025 | -9.13282 | 361 ft | 8 kts | 303° |
| 2026-04-24 11:22 | 38.77080 | -9.13312 | 353 ft | 9 kts | 343° |
| 2026-04-24 11:22 | 38.77159 | -9.13336 | 357 ft | 14 kts | 347° |
| 2026-04-24 11:22 | 38.77257 | -9.13363 | 361 ft | 15 kts | 345° |
| 2026-04-24 11:23 | 38.77298 | -9.13461 | 357 ft | 13 kts | 260° |
| 2026-04-24 11:23 | 38.77239 | -9.13487 | 356 ft | 9 kts | 172° |
| 2026-04-24 11:23 | 38.77166 | -9.13467 | 353 ft | 12 kts | 167° |
| 2026-04-24 11:23 | 38.77113 | -9.13465 | 355 ft | 7 kts | 194° |
| 2026-04-24 11:24 | 38.77083 | -9.13511 | 358 ft | 8 kts | 231° |
| 2026-04-24 11:24 | 38.77022 | -9.13529 | 355 ft | 12 kts | 177° |
| 2026-04-24 11:24 | 38.76925 | -9.13503 | 361 ft | 16 kts | 167° |
| 2026-04-24 11:24 | 38.76856 | -9.13483 | 353 ft | 7 kts | 167° |
| 2026-04-24 11:25 | 38.76803 | -9.13479 | 357 ft | 7 kts | 199° |
| 2026-04-24 11:25 | 38.76783 | -9.13535 | 360 ft | 0 kts | 258° |
| 2026-04-24 11:25 | 38.76782 | -9.13547 | 358 ft | 3 kts | 259° |
| 2026-04-24 11:25 | 38.76779 | -9.13568 | 357 ft | 1 kts | 258° |
| 2026-04-24 11:26 | 38.76777 | -9.13577 | 357 ft | 0 kts | 258° |